
Distance (Route):
Temperature : 2.4°C
Humidity : 0%
Pressure : 0hPa| Receiver | Frames | First received | Last received |
|---|---|---|---|
| DB0UT-7 | 155 | 2026-08-31 23:39:29 | 2026-09-01 01:41:27 |
| DM0DOS-11 | 114 | 2026-09-01 00:06:02 | 2026-09-01 01:11:34 |
| DJ2DS-15 | 87 | 2026-09-01 00:42:18 | 2026-09-01 01:12:52 |
| DO1YAY-16 | 26 | 2026-09-01 00:26:46 | 2026-09-01 01:17:29 |
| DL1ZP-14 | 22 | 2026-09-01 00:21:19 | 2026-09-01 01:13:03 |
| Receiver | Date | Latitude | Longitude | Direction | Speed | Altitude | Climb | Temperature | Humidity | Pressure | Voltage | Killtimer | Uptime | BKT | XDATA |
|---|---|---|---|---|---|---|---|---|---|---|---|---|---|---|---|
| DB0UT-7 | 2026-09-01 01:41:27 | 48.89155 | 3.46610 | 96° | 44km/h | 3202m | -7.4m/s | 2.4°C | 0% | 0hPa | 4.4V | 00:00:00 | 00:00:00 | 00:00:00 | |
| DB0UT-7 | 2026-09-01 01:40:57 | 48.89216 | 3.46118 | 101° | 51km/h | 3438m | -8.3m/s | 1.3°C | 0% | 0hPa | 4.4V | 00:00:00 | 00:00:00 | 00:00:00 | |
| DB0UT-7 | 2026-09-01 01:39:47 | 48.89321 | 3.44749 | 96° | 49km/h | 3976m | -7.8m/s | -1.8°C | 0% | 0hPa | 4.4V | 00:00:00 | 00:00:00 | 00:00:00 | |
| DB0UT-7 | 2026-09-01 01:38:10 | 48.89415 | 3.42938 | 100° | 55km/h | 4763m | -7.7m/s | -7.3°C | 0% | 0hPa | 4.4V | 00:00:00 | 00:00:00 | 00:00:00 | |
| DB0UT-7 | 2026-09-01 01:36:19 | 48.89409 | 3.40706 | 90° | 57km/h | 5602m | -7.9m/s | -12.9°C | 0% | 0hPa | 4.4V | 00:00:00 | 00:00:00 | 00:00:00 | |
| DB0UT-7 | 2026-09-01 01:35:49 | 48.89400 | 3.40053 | 89° | 68km/h | 5842m | -8.0m/s | -14.6°C | 0% | 0hPa | 4.4V | 00:00:00 | 00:00:00 | 00:00:00 | |
| DB0UT-7 | 2026-09-01 01:34:37 | 48.89243 | 3.38306 | 77° | 75km/h | 6440m | -8.3m/s | -16.7°C | 0% | 0hPa | 4.4V | 00:00:00 | 00:00:00 | 00:00:00 | |
| DB0UT-7 | 2026-09-01 01:34:07 | 48.89060 | 3.37490 | 70° | 73km/h | 6695m | -8.2m/s | -18.0°C | 0% | 0hPa | 4.4V | 00:00:00 | 00:00:00 | 00:00:00 | |
| DB0UT-7 | 2026-09-01 01:32:53 | 48.88802 | 3.35608 | 83° | 80km/h | 7330m | -8.2m/s | -23.1°C | 0% | 0hPa | 4.4V | 00:00:00 | 00:00:00 | 00:00:00 | |
| DB0UT-7 | 2026-09-01 01:32:23 | 48.88730 | 3.34688 | 85° | 93km/h | 7555m | -8.3m/s | -24.7°C | 0% | 0hPa | 4.4V | 00:00:00 | 00:00:00 | 00:00:00 | |
| DB0UT-7 | 2026-09-01 01:31:11 | 48.88545 | 3.32171 | 83° | 95km/h | 8177m | -8.4m/s | -29.8°C | 0% | 0hPa | 4.4V | 00:00:00 | 00:00:00 | 00:00:00 | |
| DB0UT-7 | 2026-09-01 01:30:41 | 48.88417 | 3.31083 | 79° | 110km/h | 8414m | -8.6m/s | -31.9°C | 0% | 0hPa | 4.4V | 00:00:00 | 00:00:00 | 00:00:00 | |
| DB0UT-7 | 2026-09-01 01:29:29 | 48.88025 | 3.28130 | 80° | 104km/h | 9041m | -9.1m/s | -36.5°C | 0% | 0hPa | 4.4V | 00:00:00 | 00:00:00 | 00:00:00 | |
| DB0UT-7 | 2026-09-01 01:28:59 | 48.87880 | 3.26958 | 80° | 93km/h | 9313m | -9.1m/s | -38.6°C | 0% | 0hPa | 4.4V | 00:00:00 | 00:00:00 | 00:00:00 | |
| DB0UT-7 | 2026-09-01 01:27:46 | 48.87461 | 3.24416 | 73° | 95km/h | 9982m | -9.5m/s | -43.5°C | 0% | 0hPa | 4.5V | 00:00:00 | 00:00:00 | 00:00:00 | |
| DB0UT-7 | 2026-09-01 01:27:16 | 48.87249 | 3.23362 | 74° | 99km/h | 10276m | -9.1m/s | -45.9°C | 0% | 0hPa | 4.5V | 00:00:00 | 00:00:00 | 00:00:00 | |
| DB0UT-7 | 2026-09-01 01:26:04 | 48.86818 | 3.20688 | 81° | 102km/h | 11051m | -12.6m/s | -52.2°C | 0% | 0hPa | 4.5V | 00:00:00 | 00:00:00 | 00:00:00 | |
| DB0UT-7 | 2026-09-01 01:25:34 | 48.86698 | 3.19537 | 84° | 104km/h | 11421m | -11.8m/s | -55.0°C | 0% | 0hPa | 4.5V | 00:00:00 | 00:00:00 | 00:00:00 | |
| DB0UT-7 | 2026-09-01 01:24:26 | 48.86652 | 3.16661 | 95° | 91km/h | 12213m | -11.3m/s | -59.9°C | 0% | 0hPa | 4.5V | 00:00:00 | 00:00:00 | 00:00:00 | |
| DB0UT-7 | 2026-09-01 01:23:56 | 48.86632 | 3.15636 | 86° | 71km/h | 12616m | -13.9m/s | -58.2°C | 0% | 0hPa | 4.5V | 00:00:00 | 00:00:00 | 00:00:00 | |
| DB0UT-7 | 2026-09-01 01:22:42 | 48.86521 | 3.13402 | 83° | 78km/h | 13642m | -15.9m/s | -54.0°C | 0% | 0hPa | 4.6V | 00:00:00 | 00:00:00 | 00:00:00 | |
| DB0UT-7 | 2026-09-01 01:22:11 | 48.86472 | 3.12483 | 85° | 77km/h | 14129m | -17.1m/s | -53.4°C | 0% | 0hPa | 4.6V | 00:00:00 | 00:00:00 | 00:00:00 | |
| DB0UT-7 | 2026-09-01 01:21:02 | 48.86527 | 3.10511 | 100° | 55km/h | 15492m | -20.7m/s | -53.9°C | 0% | 0hPa | 4.6V | 00:00:00 | 00:00:00 | 00:00:00 | |
| DB0UT-7 | 2026-09-01 01:20:31 | 48.86601 | 3.09862 | 97° | 35km/h | 16142m | -21.6m/s | -53.2°C | 0% | 0hPa | 4.6V | 00:00:00 | 00:00:00 | 00:00:00 | |
| DB0UT-7 | 2026-09-01 01:19:02 | 48.86403 | 3.08493 | 57° | 26km/h | 18043m | -25.0m/s | -52.9°C | 0% | 0hPa | 4.6V | 00:00:00 | 00:00:00 | 00:00:00 | |
| DB0UT-7 | 2026-09-01 01:17:30 | 48.86349 | 3.07496 | 75° | 7km/h | 20533m | -30.4m/s | -51.3°C | 0% | 0hPa | 4.6V | 00:00:00 | 00:00:00 | 00:00:00 | |
| DO1YAY-16 | 2026-09-01 01:17:29 | 48.86325 | 3.07448 | 48° | 13km/h | 20954m | -31.5m/s | -52.3°C | 0.0% | -1.0hPa | 4.7V | 00:00:00 | 00:00:00 | 00:00:00 | |
| DO1YAY-16 | 2026-09-01 01:16:58 | 48.86230 | 3.07382 | 29° | 11km/h | 22275m | -30.5m/s | -51.8°C | 0.0% | -1.0hPa | 4.7V | 00:00:00 | 00:00:00 | 00:00:00 | |
| DO1YAY-16 | 2026-09-01 01:16:26 | 48.86224 | 3.07365 | 316° | 4km/h | 22611m | -31.4m/s | -51.8°C | 0.0% | -1.0hPa | 4.7V | 00:00:00 | 00:00:00 | 00:00:00 | |
| DB0UT-7 | 2026-09-01 01:15:44 | 48.86191 | 3.07425 | 273° | 24km/h | 23866m | -32.2m/s | -52.3°C | 0% | 0hPa | 4.7V | 00:00:00 | 00:00:00 | 00:00:00 | |
| DO1YAY-16 | 2026-09-01 01:14:53 | 48.86073 | 3.07635 | 330° | 24km/h | 25577m | -34.9m/s | -51.5°C | 0.0% | -1.0hPa | 4.7V | 00:00:00 | 00:00:00 | 00:00:00 | |
| DO1YAY-16 | 2026-09-01 01:13:51 | 48.86081 | 3.07713 | 228° | 13km/h | 28134m | -36.3m/s | -48.1°C | 0.0% | -1.0hPa | 4.7V | 00:00:00 | 00:00:00 | 00:00:00 | |
| DO1YAY-16 | 2026-09-01 01:13:20 | 48.86059 | 3.07780 | 343° | 2km/h | 29372m | -43.7m/s | -45.0°C | 0.0% | -1.0hPa | 4.7V | 00:00:00 | 00:00:00 | 00:00:00 | |
| DL1ZP-14 | 2026-09-01 01:13:03 | 48.85950 | 3.07701 | 21° | 27km/h | 30340m | -43.4m/s | -42.1°C | 0.0% | -1.0hPa | 4.7V | 00:00:00 | 00:00:00 | 00:00:00 | |
| DJ2DS-15 | 2026-09-01 01:12:52 | 48.85950 | 3.07701 | 21° | 27km/h | 30340m | -43.4m/s | -42.1°C | 0.0% | -1.0hPa | 4.7V | 00:00:00 | 00:00:00 | 00:00:00 | |
| DO1YAY-16 | 2026-09-01 01:12:49 | 48.85866 | 3.07493 | 77° | 27km/h | 31279m | -41.1m/s | -40.8°C | 0.2% | -1.0hPa | 4.7V | 00:00:00 | 00:00:00 | 00:00:00 | |
| DO1YAY-16 | 2026-09-01 01:12:18 | 48.85886 | 3.07373 | 105° | 20km/h | 32156m | -47.2m/s | -39.0°C | 0.2% | -1.0hPa | 4.7V | 00:00:00 | 00:00:00 | 00:00:00 | |
| DJ2DS-15 | 2026-09-01 01:11:42 | 48.85897 | 3.07234 | 101° | 22km/h | 33436m | -46.7m/s | -35.6°C | 0% | 0hPa | 4.7V | 00:00:00 | 00:00:00 | 00:00:00 | |
| DM0DOS-11 | 2026-09-01 01:11:34 | 48.85911 | 3.07164 | 126° | 27km/h | 33934m | -38.1m/s | -35.2°C | 0% | 0hPa | 4.7V | 00:00:00 | 00:00:00 | 00:00:00 | |
| DM0DOS-11 | 2026-09-01 01:11:24 | 48.85946 | 3.07172 | 129° | 46km/h | 34300m | -46m/s | -34.4°C | 0% | 0hPa | 4.7V | 00:00:00 | 00:00:00 | 00:00:00 | |
| DJ2DS-15 | 2026-09-01 01:11:22 | 48.85930 | 3.07195 | 144° | 27km/h | 34213m | -37.5m/s | -34.6°C | 0% | 0hPa | 4.7V | 00:00:00 | 00:00:00 | 00:00:00 | |
| DM0DOS-11 | 2026-09-01 01:11:05 | 48.85932 | 3.07171 | 196° | 11km/h | 34765m | 3.9m/s | -33.6°C | 0% | 0hPa | 4.7V | 00:00:00 | 00:00:00 | 00:00:00 | |
| DM0DOS-11 | 2026-09-01 01:10:54 | 48.85905 | 3.07170 | 158° | 26km/h | 34704m | 3.6m/s | -33.9°C | 0% | 0hPa | 4.7V | 00:00:00 | 00:00:00 | 00:00:00 | |
| DM0DOS-11 | 2026-09-01 01:10:44 | 48.85902 | 3.07143 | 324° | 16km/h | 34629m | 9.1m/s | -34.3°C | 0% | 0hPa | 4.7V | 00:00:00 | 00:00:00 | 00:00:00 | |
| DJ2DS-15 | 2026-09-01 01:10:42 | 48.85893 | 3.07146 | 154° | 24km/h | 34647m | 3.0m/s | -34.2°C | 0% | 0hPa | 4.7V | 00:00:00 | 00:00:00 | 00:00:00 | |
| DB0UT-7 | 2026-09-01 01:10:36 | 48.85877 | 3.07156 | 354° | 27km/h | 34615m | 2.1m/s | -34.3°C | 0% | 0hPa | 4.7V | 00:00:00 | 00:00:00 | 00:00:00 | |
| DM0DOS-11 | 2026-09-01 01:10:31 | 48.85897 | 3.07142 | 270° | 9km/h | 34573m | 7.4m/s | -34.4°C | 0% | 0hPa | 4.7V | 00:00:00 | 00:00:00 | 00:00:00 | |
| DJ2DS-15 | 2026-09-01 01:10:22 | 48.85875 | 3.07154 | 170° | 27km/h | 34527m | 10.0m/s | -34.5°C | 0% | 0hPa | 4.7V | 00:00:00 | 00:00:00 | 00:00:00 | |
| DM0DOS-11 | 2026-09-01 01:10:19 | 48.85907 | 3.07156 | 323° | 16km/h | 34498m | 8.3m/s | -34.6°C | 0% | 0hPa | 4.7V | 00:00:00 | 00:00:00 | 00:00:00 | |
| DM0DOS-11 | 2026-09-01 01:10:09 | 48.85937 | 3.07170 | 271° | 7km/h | 34441m | 8.9m/s | -34.9°C | 0% | 0hPa | 4.7V | 00:00:00 | 00:00:00 | 00:00:00 | |
| DB0UT-7 | 2026-09-01 01:10:06 | 48.85934 | 3.07174 | 327° | 22km/h | 34433m | 8.6m/s | -34.8°C | 0% | 0hPa | 4.7V | 00:00:00 | 00:00:00 | 00:00:00 | |
| DJ2DS-15 | 2026-09-01 01:10:02 | 48.85922 | 3.07193 | 197° | 29km/h | 34413m | 8.0m/s | -35.0°C | 0% | 0hPa | 4.7V | 00:00:00 | 00:00:00 | 00:00:00 | |
| DM0DOS-11 | 2026-09-01 01:09:58 | 48.85963 | 3.07188 | 319° | 13km/h | 34374m | 10.2m/s | -35.2°C | 0% | 0hPa | 4.7V | 00:00:00 | 00:00:00 | 00:00:00 | |
| DM0DOS-11 | 2026-09-01 01:09:48 | 48.85983 | 3.07228 | 312° | 33km/h | 34302m | 1.2m/s | -35.2°C | 0% | 0hPa | 4.7V | 00:00:00 | 00:00:00 | 00:00:00 | |
| DJ2DS-15 | 2026-09-01 01:09:42 | 48.85979 | 3.07236 | 284° | 33km/h | 34301m | 1.4m/s | -35.1°C | 0% | 0hPa | 4.8V | 00:00:00 | 00:00:00 | 00:00:00 | |
| DB0UT-7 | 2026-09-01 01:09:35 | 48.86032 | 3.07214 | 129° | 26km/h | 34258m | 8.6m/s | -35.0°C | 0% | 0hPa | 4.8V | 00:00:00 | 00:00:00 | 00:00:00 | |
| DM0DOS-11 | 2026-09-01 01:09:28 | 48.86061 | 3.07243 | 151° | 24km/h | 34198m | 3.7m/s | -35.4°C | 0% | 0hPa | 4.8V | 00:00:00 | 00:00:00 | 00:00:00 | |
| DJ2DS-15 | 2026-09-01 01:09:22 | 48.86064 | 3.07258 | 283° | 29km/h | 34176m | 6.6m/s | -35.3°C | 0% | 0hPa | 4.7V | 00:00:00 | 00:00:00 | 00:00:00 | |
| DM0DOS-11 | 2026-09-01 01:09:15 | 48.86116 | 3.07302 | 256° | 24km/h | 34110m | 3.8m/s | -35.4°C | 0% | 0hPa | 4.7V | 00:00:00 | 00:00:00 | 00:00:00 | |
| DB0UT-7 | 2026-09-01 01:09:04 | 48.86153 | 3.07282 | 117° | 26km/h | 34075m | 5.1m/s | -35.3°C | 0% | 0hPa | 4.8V | 00:00:00 | 00:00:00 | 00:00:00 | |
| DJ2DS-15 | 2026-09-01 01:09:02 | 48.86152 | 3.07276 | 332° | 26km/h | 34059m | 7.9m/s | -35.3°C | 0% | 0hPa | 4.8V | 00:00:00 | 00:00:00 | 00:00:00 | |
| DM0DOS-11 | 2026-09-01 01:08:59 | 48.86168 | 3.07279 | 136° | 46km/h | 34024m | 6.2m/s | -35.6°C | 0% | 0hPa | 4.8V | 00:00:00 | 00:00:00 | 00:00:00 | |
| DM0DOS-11 | 2026-09-01 01:08:43 | 48.86183 | 3.07175 | 2° | 27km/h | 33936m | 6.7m/s | -35.7°C | 0% | 0hPa | 4.8V | 00:00:00 | 00:00:00 | 00:00:00 | |
| DJ2DS-15 | 2026-09-01 01:08:43 | 48.86189 | 3.07177 | 37° | 29km/h | 33943m | 9.0m/s | -35.6°C | 0% | 0hPa | 4.7V | 00:00:00 | 00:00:00 | 00:00:00 | |
| DB0UT-7 | 2026-09-01 01:08:34 | 48.86197 | 3.07125 | 123° | 27km/h | 33901m | 3.0m/s | -35.8°C | 0% | 0hPa | 4.7V | 00:00:00 | 00:00:00 | 00:00:00 | |
| DM0DOS-11 | 2026-09-01 01:08:25 | 48.86203 | 3.07043 | 6° | 13km/h | 33816m | 5.8m/s | -36°C | 0% | 0hPa | 4.7V | 00:00:00 | 00:00:00 | 00:00:00 | |
| DJ2DS-15 | 2026-09-01 01:08:22 | 48.86205 | 3.07045 | 128° | 22km/h | 33829m | 6.7m/s | -35.9°C | 0% | 0hPa | 4.7V | 00:00:00 | 00:00:00 | 00:00:00 | |
| DM0DOS-11 | 2026-09-01 01:08:14 | 48.86210 | 3.06979 | 16° | 11km/h | 33758m | 4.3m/s | -36.1°C | 0% | 0hPa | 4.8V | 00:00:00 | 00:00:00 | 00:00:00 | |
| DM0DOS-11 | 2026-09-01 01:08:04 | 48.86213 | 3.06901 | 336° | 16km/h | 33700m | 4.1m/s | -36°C | 0% | 0hPa | 4.8V | 00:00:00 | 00:00:00 | 00:00:00 | |
| DJ2DS-15 | 2026-09-01 01:08:02 | 48.86220 | 3.06901 | 51° | 24km/h | 33712m | 8.1m/s | -36.0°C | 0% | 0hPa | 4.8V | 00:00:00 | 00:00:00 | 00:00:00 | |
| DM0DOS-11 | 2026-09-01 01:07:54 | 48.86216 | 3.06833 | 337° | 18km/h | 33645m | 3.9m/s | -36.2°C | 0% | 0hPa | 4.8V | 00:00:00 | 00:00:00 | 00:00:00 | |
| DJ2DS-15 | 2026-09-01 01:07:42 | 48.86232 | 3.06772 | 44° | 26km/h | 33600m | 8.3m/s | -36.2°C | 0% | 0hPa | 4.8V | 00:00:00 | 00:00:00 | 00:00:00 | |
| DM0DOS-11 | 2026-09-01 01:07:39 | 48.86219 | 3.06778 | 154° | 20km/h | 33570m | 7.2m/s | -36.3°C | 0% | 0hPa | 4.8V | 00:00:00 | 00:00:00 | 00:00:00 | |
| DB0UT-7 | 2026-09-01 01:07:29 | 48.86219 | 3.06739 | 344° | 26km/h | 33530m | 1.9m/s | -36.4°C | 0% | 0hPa | 4.8V | 00:00:00 | 00:00:00 | 00:00:00 | |
| DM0DOS-11 | 2026-09-01 01:07:23 | 48.86233 | 3.06685 | 71° | 15km/h | 33489m | 6.4m/s | -36.5°C | 0% | 0hPa | 4.8V | 00:00:00 | 00:00:00 | 00:00:00 | |
| DJ2DS-15 | 2026-09-01 01:07:22 | 48.86233 | 3.06685 | 72° | 27km/h | 33489m | 6.4m/s | -36.4°C | 0% | 0hPa | 4.7V | 00:00:00 | 00:00:00 | 00:00:00 | |
| DM0DOS-11 | 2026-09-01 01:07:11 | 48.86189 | 3.06598 | 58° | 35km/h | 33402m | 6.7m/s | -36.5°C | 0% | 0hPa | 4.8V | 00:00:00 | 00:00:00 | 00:00:00 | |
| DJ2DS-15 | 2026-09-01 01:07:02 | 48.86187 | 3.06537 | 78° | 24km/h | 33375m | 6.8m/s | -36.5°C | 0% | 0hPa | 4.7V | 00:00:00 | 00:00:00 | 00:00:00 | |
| DB0UT-7 | 2026-09-01 01:06:59 | 48.86175 | 3.06534 | 11° | 22km/h | 33357m | 3.7m/s | -36.5°C | 0% | 0hPa | 4.7V | 00:00:00 | 00:00:00 | 00:00:00 | |
| DM0DOS-11 | 2026-09-01 01:06:53 | 48.86166 | 3.06457 | 66° | 16km/h | 33316m | 7m/s | -36.6°C | 0% | 0hPa | 4.8V | 00:00:00 | 00:00:00 | 00:00:00 | |
| DM0DOS-11 | 2026-09-01 01:06:43 | 48.86157 | 3.06397 | 316° | 18km/h | 33248m | 3.9m/s | -36.8°C | 0% | 0hPa | 4.8V | 00:00:00 | 00:00:00 | 00:00:00 | |
| DJ2DS-15 | 2026-09-01 01:06:42 | 48.86164 | 3.06395 | 50° | 26km/h | 33260m | 7.5m/s | -36.7°C | 0% | 0hPa | 4.8V | 00:00:00 | 00:00:00 | 00:00:00 | |
| DB0UT-7 | 2026-09-01 01:06:29 | 48.86171 | 3.06334 | 288° | 24km/h | 33186m | 5.1m/s | -37.0°C | 0% | 0hPa | 4.8V | 00:00:00 | 00:00:00 | 00:00:00 | |
| DM0DOS-11 | 2026-09-01 01:06:28 | 48.86194 | 3.06307 | 120° | 40km/h | 33159m | 3.7m/s | -37°C | 0% | 0hPa | 4.8V | 00:00:00 | 00:00:00 | 00:00:00 | |
| DJ2DS-15 | 2026-09-01 01:06:22 | 48.86199 | 3.06285 | 92° | 22km/h | 33148m | 7.1m/s | -37.0°C | 0% | 0hPa | 4.7V | 00:00:00 | 00:00:00 | 00:00:00 | |
| DM0DOS-11 | 2026-09-01 01:06:17 | 48.86229 | 3.06238 | 118° | 15km/h | 33090m | 6.7m/s | -37.4°C | 0% | 0hPa | 4.8V | 00:00:00 | 00:00:00 | 00:00:00 | |
| DM0DOS-11 | 2026-09-01 01:06:07 | 48.86250 | 3.06180 | 94° | 13km/h | 33032m | 7m/s | -37.8°C | 0% | 0hPa | 4.8V | 00:00:00 | 00:00:00 | 00:00:00 | |
| DJ2DS-15 | 2026-09-01 01:06:02 | 48.86249 | 3.06180 | 95° | 18km/h | 33032m | 7.0m/s | -37.8°C | 0% | 0hPa | 4.8V | 00:00:00 | 00:00:00 | 00:00:00 | |
| DM0DOS-11 | 2026-09-01 01:05:57 | 48.86259 | 3.06118 | 38° | 18km/h | 32974m | 7.8m/s | -38.1°C | 0% | 0hPa | 4.8V | 00:00:00 | 00:00:00 | 00:00:00 | |
| DB0UT-7 | 2026-09-01 01:05:56 | 48.86252 | 3.06158 | 125° | 20km/h | 32998m | 6.4m/s | -37.9°C | 0% | 0hPa | 4.8V | 00:00:00 | 00:00:00 | 00:00:00 | |
| DJ2DS-15 | 2026-09-01 01:05:42 | 48.86251 | 3.06073 | 352° | 18km/h | 32917m | 7.1m/s | -38.5°C | 0% | 0hPa | 4.8V | 00:00:00 | 00:00:00 | 00:00:00 | |
| DM0DOS-11 | 2026-09-01 01:05:39 | 48.86240 | 3.06049 | 116° | 27km/h | 32883m | 4.3m/s | -38.9°C | 0% | 0hPa | 4.8V | 00:00:00 | 00:00:00 | 00:00:00 | |
| DJ2DS-15 | 2026-09-01 01:05:22 | 48.86223 | 3.06014 | 323° | 18km/h | 32801m | 6.4m/s | -39.0°C | 0% | 0hPa | 4.7V | 00:00:00 | 00:00:00 | 00:00:00 | |
| DB0UT-7 | 2026-09-01 01:05:19 | 48.86210 | 3.06021 | 54° | 18km/h | 32786m | 6.6m/s | -39.0°C | 0% | 0hPa | 4.7V | 00:00:00 | 00:00:00 | 00:00:00 | |
| DM0DOS-11 | 2026-09-01 01:05:05 | 48.86200 | 3.05962 | 325° | 24km/h | 32686m | 5.3m/s | -39.3°C | 0% | 0hPa | 4.8V | 00:00:00 | 00:00:00 | 00:00:00 | |
| DJ2DS-15 | 2026-09-01 01:05:02 | 48.86200 | 3.05962 | 326° | 18km/h | 32686m | 5.3m/s | -39.3°C | 0% | 0hPa | 4.8V | 00:00:00 | 00:00:00 | 00:00:00 | |
| DB0UT-7 | 2026-09-01 01:04:49 | 48.86176 | 3.05950 | 101° | 22km/h | 32612m | 8.6m/s | -39.4°C | 0% | 0hPa | 4.8V | 00:00:00 | 00:00:00 | 00:00:00 | |
| DM0DOS-11 | 2026-09-01 01:04:45 | 48.86177 | 3.05917 | 274° | 15km/h | 32572m | 4.2m/s | -39.6°C | 0% | 0hPa | 4.8V | 00:00:00 | 00:00:00 | 00:00:00 | |
| DJ2DS-15 | 2026-09-01 01:04:42 | 48.86177 | 3.05917 | 275° | 20km/h | 32572m | 4.2m/s | -39.6°C | 0% | 0hPa | 4.8V | 00:00:00 | 00:00:00 | 00:00:00 | |
| DM0DOS-11 | 2026-09-01 01:04:26 | 48.86234 | 3.05823 | 124° | 20km/h | 32458m | 5.3m/s | -40.3°C | 0% | 0hPa | 4.8V | 00:00:00 | 00:00:00 | 00:00:00 | |
| DJ2DS-15 | 2026-09-01 01:04:22 | 48.86237 | 3.05815 | 130° | 26km/h | 32452m | 6.9m/s | -40.3°C | 0% | 0hPa | 4.8V | 00:00:00 | 00:00:00 | 00:00:00 | |
| DM0DOS-11 | 2026-09-01 01:04:18 | 48.86271 | 3.05755 | 127° | 27km/h | 32397m | 7m/s | -40.4°C | 0% | 0hPa | 4.8V | 00:00:00 | 00:00:00 | 00:00:00 | |
| DM0DOS-11 | 2026-09-01 01:04:05 | 48.86312 | 3.05676 | 137° | 26km/h | 32337m | 5.1m/s | -40.2°C | 0% | 0hPa | 4.8V | 00:00:00 | 00:00:00 | 00:00:00 | |
| DB0UT-7 | 2026-09-01 01:04:03 | 48.86312 | 3.05676 | 138° | 20km/h | 32337m | 5.0m/s | -40.2°C | 0% | 0hPa | 4.8V | 00:00:00 | 00:00:00 | 00:00:00 | |
| DJ2DS-15 | 2026-09-01 01:04:02 | 48.86316 | 3.05670 | 136° | 20km/h | 32332m | 5.0m/s | -40.1°C | 0% | 0hPa | 4.8V | 00:00:00 | 00:00:00 | 00:00:00 | |
| DO1YAY-16 | 2026-09-01 01:04:01 | 48.86320 | 3.05660 | 99° | 9km/h | 32319m | 7.1m/s | -40.2°C | 0.0% | -1.0hPa | 4.8V | 00:00:00 | 00:00:00 | 00:00:00 | |
| DJ2DS-15 | 2026-09-01 01:03:42 | 48.86351 | 3.05535 | 50° | 20km/h | 32211m | 6.9m/s | -40.2°C | 0% | 0hPa | 4.8V | 00:00:00 | 00:00:00 | 00:00:00 | |
| DB0UT-7 | 2026-09-01 01:03:33 | 48.86352 | 3.05478 | 58° | 16km/h | 32159m | 7.9m/s | -40.2°C | 0% | 0hPa | 4.8V | 00:00:00 | 00:00:00 | 00:00:00 | |
| DJ2DS-15 | 2026-09-01 01:03:22 | 48.86353 | 3.05425 | 20° | 13km/h | 32094m | 5.2m/s | -40.0°C | 0% | 0hPa | 4.8V | 00:00:00 | 00:00:00 | 00:00:00 | |
| DM0DOS-11 | 2026-09-01 01:03:19 | 48.86349 | 3.05409 | 123° | 24km/h | 32069m | 6.5m/s | -40°C | 0% | 0hPa | 4.8V | 00:00:00 | 00:00:00 | 00:00:00 | |
| DM0DOS-11 | 2026-09-01 01:03:08 | 48.86366 | 3.05349 | 180° | 0km/h | 31999m | 7.8m/s | -39.9°C | 0% | 0hPa | 4.8V | 00:00:00 | 00:00:00 | 00:00:00 | |
| DB0UT-7 | 2026-09-01 01:03:03 | 48.86364 | 3.05355 | 123° | 18km/h | 31984m | 4.3m/s | -39.8°C | 0% | 0hPa | 4.8V | 00:00:00 | 00:00:00 | 00:00:00 | |
| DJ2DS-15 | 2026-09-01 01:03:01 | 48.86368 | 3.05345 | 118° | 20km/h | 31968m | 8.1m/s | -39.8°C | 0% | 0hPa | 4.8V | 00:00:00 | 00:00:00 | 00:00:00 | |
| DJ2DS-15 | 2026-09-01 01:02:41 | 48.86418 | 3.05262 | 109° | 22km/h | 31851m | 5.7m/s | -39.9°C | 0% | 0hPa | 4.8V | 00:00:00 | 00:00:00 | 00:00:00 | |
| DB0UT-7 | 2026-09-01 01:02:30 | 48.86459 | 3.05226 | 74° | 24km/h | 31783m | 5.9m/s | -40.0°C | 0% | 0hPa | 4.8V | 00:00:00 | 00:00:00 | 00:00:00 | |
| DJ2DS-15 | 2026-09-01 01:02:21 | 48.86497 | 3.05185 | 306° | 27km/h | 31729m | 7.5m/s | -40.1°C | 0% | 0hPa | 4.8V | 00:00:00 | 00:00:00 | 00:00:00 | |
| DL1ZP-14 | 2026-09-01 01:02:11 | 48.86516 | 3.05127 | 350° | 15km/h | 31666m | 3.1m/s | -40.1°C | 0.0% | -1.0hPa | 4.8V | 00:00:00 | 00:00:00 | 00:00:00 | |
| DJ2DS-15 | 2026-09-01 01:02:03 | 48.86538 | 3.05043 | 104° | 16km/h | 31616m | 6.9m/s | -40.3°C | 0.0% | -1.0hPa | 4.8V | 00:00:00 | 00:00:00 | 00:00:00 | |
| DB0UT-7 | 2026-09-01 01:01:59 | 48.86539 | 3.05031 | 110° | 31km/h | 31597m | 6.3m/s | -40.4°C | 0% | 0hPa | 4.8V | 00:00:00 | 00:00:00 | 00:00:00 | |
| DJ2DS-15 | 2026-09-01 01:01:41 | 48.86580 | 3.04833 | 106° | 33km/h | 31486m | 7.2m/s | -40.4°C | 0% | 0hPa | 4.8V | 00:00:00 | 00:00:00 | 00:00:00 | |
| DB0UT-7 | 2026-09-01 01:01:29 | 48.86582 | 3.04693 | 108° | 33km/h | 31414m | 5.0m/s | -40.9°C | 0% | 0hPa | 4.8V | 00:00:00 | 00:00:00 | 00:00:00 | |
| DJ2DS-15 | 2026-09-01 01:01:21 | 48.86553 | 3.04608 | 89° | 29km/h | 31363m | 5.0m/s | -40.9°C | 0% | 0hPa | 4.8V | 00:00:00 | 00:00:00 | 00:00:00 | |
| DJ2DS-15 | 2026-09-01 01:01:01 | 48.86502 | 3.04418 | 72° | 31km/h | 31242m | 7.0m/s | -40.9°C | 0% | 0hPa | 4.8V | 00:00:00 | 00:00:00 | 00:00:00 | |
| DJ2DS-15 | 2026-09-01 01:00:41 | 48.86455 | 3.04210 | 73° | 29km/h | 31116m | 6.3m/s | -40.7°C | 0% | 0hPa | 4.8V | 00:00:00 | 00:00:00 | 00:00:00 | |
| DB0UT-7 | 2026-09-01 01:00:23 | 48.86398 | 3.04037 | 64° | 27km/h | 31005m | 6.8m/s | -40.5°C | 0% | 0hPa | 4.8V | 00:00:00 | 00:00:00 | 00:00:00 | |
| DJ2DS-15 | 2026-09-01 01:00:21 | 48.86394 | 3.04016 | 82° | 26km/h | 30992m | 6.0m/s | -40.6°C | 0% | 0hPa | 4.8V | 00:00:00 | 00:00:00 | 00:00:00 | |
| DJ2DS-15 | 2026-09-01 01:00:01 | 48.86314 | 3.03873 | 45° | 27km/h | 30869m | 4.9m/s | -41.4°C | 0% | 0hPa | 4.8V | 00:00:00 | 00:00:00 | 00:00:00 | |
| DB0UT-7 | 2026-09-01 00:59:53 | 48.86285 | 3.03814 | 36° | 27km/h | 30820m | 5.8m/s | -41.7°C | 0% | 0hPa | 4.8V | 00:00:00 | 00:00:00 | 00:00:00 | |
| DJ2DS-15 | 2026-09-01 00:59:40 | 48.86232 | 3.03699 | 66° | 35km/h | 30743m | 6.1m/s | -41.9°C | 0% | 0hPa | 4.8V | 00:00:00 | 00:00:00 | 00:00:00 | |
| DJ2DS-15 | 2026-09-01 00:59:38 | 48.86221 | 3.03670 | 54° | 51km/h | 30729m | 6.0m/s | -42.4°C | 0.0% | -1.0hPa | 4.8V | 00:00:00 | 00:00:00 | 00:00:00 | |
| DJ2DS-15 | 2026-09-01 00:59:20 | 48.86125 | 3.03507 | 17° | 35km/h | 30623m | 5.2m/s | -42.3°C | 0% | 0hPa | 4.8V | 00:00:00 | 00:00:00 | 00:00:00 | |
| DJ2DS-15 | 2026-09-01 00:59:00 | 48.85985 | 3.03387 | 10° | 24km/h | 30505m | 6.6m/s | -42.9°C | 0% | 0hPa | 4.8V | 00:00:00 | 00:00:00 | 00:00:00 | |
| DJ2DS-15 | 2026-09-01 00:58:40 | 48.85874 | 3.03330 | 38° | 27km/h | 30387m | 6.8m/s | -43.0°C | 0% | 0hPa | 4.8V | 00:00:00 | 00:00:00 | 00:00:00 | |
| DB0UT-7 | 2026-09-01 00:58:37 | 48.85847 | 3.03310 | 11° | 26km/h | 30372m | 5.5m/s | -43.1°C | 0% | 0hPa | 4.8V | 00:00:00 | 00:00:00 | 00:00:00 | |
| DJ2DS-15 | 2026-09-01 00:58:20 | 48.85756 | 3.03248 | 52° | 22km/h | 30273m | 5.5m/s | -43.3°C | 0% | 0hPa | 4.8V | 00:00:00 | 00:00:00 | 00:00:00 | |
| DB0UT-7 | 2026-09-01 00:58:07 | 48.85694 | 3.03227 | 348° | 22km/h | 30197m | 4.8m/s | -43.6°C | 0% | 0hPa | 4.8V | 00:00:00 | 00:00:00 | 00:00:00 | |
| DJ2DS-15 | 2026-09-01 00:58:00 | 48.85660 | 3.03205 | 333° | 20km/h | 30153m | 5.5m/s | -43.7°C | 0% | 0hPa | 4.8V | 00:00:00 | 00:00:00 | 00:00:00 | |
| DJ2DS-15 | 2026-09-01 00:57:40 | 48.85568 | 3.03202 | 5° | 16km/h | 30034m | 7.3m/s | -44.1°C | 0% | 0hPa | 4.8V | 00:00:00 | 00:00:00 | 00:00:00 | |
| DB0UT-7 | 2026-09-01 00:57:31 | 48.85533 | 3.03204 | 19° | 16km/h | 29979m | 6.9m/s | -44.2°C | 0% | 0hPa | 4.8V | 00:00:00 | 00:00:00 | 00:00:00 | |
| DJ2DS-15 | 2026-09-01 00:57:20 | 48.85493 | 3.03190 | 353° | 16km/h | 29911m | 7.2m/s | -44.6°C | 0% | 0hPa | 4.8V | 00:00:00 | 00:00:00 | 00:00:00 | |
| DB0UT-7 | 2026-09-01 00:57:01 | 48.85421 | 3.03181 | 28° | 16km/h | 29792m | 7.3m/s | -45.0°C | 0% | 0hPa | 4.9V | 00:00:00 | 00:00:00 | 00:00:00 | |
| DJ2DS-15 | 2026-09-01 00:57:00 | 48.85417 | 3.03176 | 39° | 18km/h | 29786m | 6.1m/s | -45.1°C | 0% | 0hPa | 4.9V | 00:00:00 | 00:00:00 | 00:00:00 | |
| DM0DOS-11 | 2026-09-01 00:56:42 | 48.85340 | 3.03211 | 310° | 7km/h | 29650m | 5.8m/s | -45.9°C | 0% | 0hPa | 4.9V | 00:00:00 | 00:00:00 | 00:00:00 | |
| DJ2DS-15 | 2026-09-01 00:56:40 | 48.85342 | 3.03204 | 303° | 11km/h | 29662m | 6.9m/s | -45.9°C | 0% | 0hPa | 4.8V | 00:00:00 | 00:00:00 | 00:00:00 | |
| DB0UT-7 | 2026-09-01 00:56:31 | 48.85329 | 3.03215 | 251° | 15km/h | 29607m | 5.2m/s | -45.9°C | 0% | 0hPa | 4.8V | 00:00:00 | 00:00:00 | 00:00:00 | |
| DJ2DS-15 | 2026-09-01 00:56:21 | 48.85317 | 3.03216 | 287° | 13km/h | 29538m | 6.5m/s | -45.6°C | 0% | 0hPa | 4.8V | 00:00:00 | 00:00:00 | 00:00:00 | |
| DB0UT-7 | 2026-09-01 00:56:01 | 48.85287 | 3.03270 | 360° | 15km/h | 29421m | 5.8m/s | -45.7°C | 0% | 0hPa | 4.9V | 00:00:00 | 00:00:00 | 00:00:00 | |
| DJ2DS-15 | 2026-09-01 00:56:00 | 48.85285 | 3.03270 | 19° | 11km/h | 29415m | 6.5m/s | -45.8°C | 0% | 0hPa | 4.9V | 00:00:00 | 00:00:00 | 00:00:00 | |
| DJ2DS-15 | 2026-09-01 00:55:40 | 48.85262 | 3.03312 | 284° | 11km/h | 29294m | 6.2m/s | -45.7°C | 0% | 0hPa | 4.9V | 00:00:00 | 00:00:00 | 00:00:00 | |
| DJ2DS-15 | 2026-09-01 00:55:20 | 48.85210 | 3.03334 | 310° | 15km/h | 29169m | 6.5m/s | -45.8°C | 0% | 0hPa | 4.9V | 00:00:00 | 00:00:00 | 00:00:00 | |
| DB0UT-7 | 2026-09-01 00:55:15 | 48.85190 | 3.03349 | 41° | 15km/h | 29139m | 5.5m/s | -45.8°C | 0% | 0hPa | 4.9V | 00:00:00 | 00:00:00 | 00:00:00 | |
| DJ2DS-15 | 2026-09-01 00:55:00 | 48.85162 | 3.03363 | 2° | 16km/h | 29050m | 5.4m/s | -46.1°C | 0% | 0hPa | 4.9V | 00:00:00 | 00:00:00 | 00:00:00 | |
| DB0UT-7 | 2026-09-01 00:54:45 | 48.85125 | 3.03428 | 327° | 22km/h | 28959m | 5.6m/s | -46.3°C | 0% | 0hPa | 4.9V | 00:00:00 | 00:00:00 | 00:00:00 | |
| DJ2DS-15 | 2026-09-01 00:54:39 | 48.85121 | 3.03458 | 146° | 13km/h | 28924m | 6.6m/s | -46.4°C | 0% | 0hPa | 4.9V | 00:00:00 | 00:00:00 | 00:00:00 | |
| DM0DOS-11 | 2026-09-01 00:54:33 | 48.85115 | 3.03493 | 62° | 4km/h | 28859m | 5.4m/s | -46.5°C | 0% | 0hPa | 4.9V | 00:00:00 | 00:00:00 | 00:00:00 | |
| DJ2DS-15 | 2026-09-01 00:54:18 | 48.85107 | 3.03499 | 251° | 11km/h | 28800m | 6.9m/s | -46.6°C | 0% | 0hPa | 4.9V | 00:00:00 | 00:00:00 | 00:00:00 | |
| DO1YAY-16 | 2026-09-01 00:54:11 | 48.85103 | 3.03500 | 345° | 16km/h | 28760m | 5.3m/s | -47.1°C | 0.0% | -1.0hPa | 4.9V | 00:00:00 | 00:00:00 | 00:00:00 | |
| DJ2DS-15 | 2026-09-01 00:53:58 | 48.85092 | 3.03506 | 236° | 13km/h | 28684m | 5.3m/s | -46.6°C | 0% | 0hPa | 4.9V | 00:00:00 | 00:00:00 | 00:00:00 | |
| DB0UT-7 | 2026-09-01 00:53:53 | 48.85082 | 3.03501 | 40° | 13km/h | 28653m | 6.3m/s | -46.7°C | 0% | 0hPa | 4.9V | 00:00:00 | 00:00:00 | 00:00:00 | |
| DJ2DS-15 | 2026-09-01 00:53:38 | 48.85056 | 3.03517 | 339° | 13km/h | 28566m | 4.3m/s | -46.9°C | 0% | 0hPa | 4.9V | 00:00:00 | 00:00:00 | 00:00:00 | |
| DB0UT-7 | 2026-09-01 00:53:20 | 48.85059 | 3.03564 | 212° | 15km/h | 28459m | 6.7m/s | -47.5°C | 0% | 0hPa | 4.9V | 00:00:00 | 00:00:00 | 00:00:00 | |
| DO1YAY-16 | 2026-09-01 00:53:09 | 48.85077 | 3.03621 | 193° | 11km/h | 28388m | 6.5m/s | -48.0°C | 0.0% | -1.0hPa | 4.9V | 00:00:00 | 00:00:00 | 00:00:00 | |
| DJ2DS-15 | 2026-09-01 00:53:02 | 48.85086 | 3.03635 | 272° | 15km/h | 28346m | 7.0m/s | -48.0°C | 0.0% | -1.0hPa | 4.9V | 00:00:00 | 00:00:00 | 00:00:00 | |
| DJ2DS-15 | 2026-09-01 00:52:58 | 48.85087 | 3.03652 | 248° | 13km/h | 28328m | 6.8m/s | -47.4°C | 0% | 0hPa | 4.9V | 00:00:00 | 00:00:00 | 00:00:00 | |
| DB0UT-7 | 2026-09-01 00:52:50 | 48.85098 | 3.03674 | 250° | 13km/h | 28280m | 6.8m/s | -47.6°C | 0% | 0hPa | 4.9V | 00:00:00 | 00:00:00 | 00:00:00 | |
| DJ2DS-15 | 2026-09-01 00:52:38 | 48.85121 | 3.03739 | 279° | 18km/h | 28209m | 6.4m/s | -47.8°C | 0% | 0hPa | 4.9V | 00:00:00 | 00:00:00 | 00:00:00 | |
| DJ2DS-15 | 2026-09-01 00:52:18 | 48.85157 | 3.03818 | 212° | 15km/h | 28093m | 6.3m/s | -48.0°C | 0% | 0hPa | 4.9V | 00:00:00 | 00:00:00 | 00:00:00 | |
| DM0DOS-11 | 2026-09-01 00:52:04 | 48.85191 | 3.03874 | 173° | 4km/h | 27993m | 5.2m/s | -48.2°C | 0% | 0hPa | 4.9V | 00:00:00 | 00:00:00 | 00:00:00 | |
| DJ2DS-15 | 2026-09-01 00:51:58 | 48.85194 | 3.03875 | 203° | 13km/h | 27976m | 5.3m/s | -48.2°C | 0% | 0hPa | 4.9V | 00:00:00 | 00:00:00 | 00:00:00 | |
| DB0UT-7 | 2026-09-01 00:51:53 | 48.85213 | 3.03896 | 294° | 11km/h | 27934m | 7.0m/s | -48.1°C | 0% | 0hPa | 4.9V | 00:00:00 | 00:00:00 | 00:00:00 | |
| DM0DOS-11 | 2026-09-01 00:51:48 | 48.85221 | 3.03902 | 156° | 22km/h | 27900m | 5.6m/s | -48.2°C | 0% | 0hPa | 4.9V | 00:00:00 | 00:00:00 | 00:00:00 | |
| DJ2DS-15 | 2026-09-01 00:51:38 | 48.85229 | 3.03908 | 187° | 13km/h | 27860m | 4.6m/s | -48.2°C | 0% | 0hPa | 4.9V | 00:00:00 | 00:00:00 | 00:00:00 | |
| DB0UT-7 | 2026-09-01 00:51:21 | 48.85254 | 3.03942 | 215° | 20km/h | 27762m | 5.0m/s | -48.2°C | 0% | 0hPa | 4.9V | 00:00:00 | 00:00:00 | 00:00:00 | |
| DJ2DS-15 | 2026-09-01 00:51:18 | 48.85258 | 3.03964 | 287° | 15km/h | 27744m | 5.1m/s | -48.2°C | 0% | 0hPa | 4.9V | 00:00:00 | 00:00:00 | 00:00:00 | |
| DO1YAY-16 | 2026-09-01 00:51:05 | 48.85268 | 3.04031 | 288° | 13km/h | 27662m | 6.5m/s | -48.8°C | 0.0% | -1.0hPa | 4.9V | 00:00:00 | 00:00:00 | 00:00:00 | |
| DJ2DS-15 | 2026-09-01 00:50:58 | 48.85280 | 3.04036 | 201° | 18km/h | 27630m | 4.8m/s | -48.4°C | 0% | 0hPa | 4.9V | 00:00:00 | 00:00:00 | 00:00:00 | |
| DJ2DS-15 | 2026-09-01 00:50:38 | 48.85326 | 3.04125 | 168° | 18km/h | 27511m | 6.0m/s | -48.6°C | 0% | 0hPa | 4.9V | 00:00:00 | 00:00:00 | 00:00:00 | |
| DJ2DS-15 | 2026-09-01 00:50:37 | 48.85337 | 3.04125 | 198° | 20km/h | 27499m | 6.4m/s | -49.2°C | 0.0% | -1.0hPa | 4.9V | 00:00:00 | 00:00:00 | 00:00:00 | |
| DJ2DS-15 | 2026-09-01 00:50:18 | 48.85398 | 3.04190 | 146° | 20km/h | 27397m | 6.1m/s | -48.5°C | 0% | 0hPa | 4.9V | 00:00:00 | 00:00:00 | 00:00:00 | |
| DB0UT-7 | 2026-09-01 00:50:05 | 48.85444 | 3.04221 | 81° | 16km/h | 27324m | 8.4m/s | -48.5°C | 0% | 0hPa | 4.9V | 00:00:00 | 00:00:00 | 00:00:00 | |
| DO1YAY-16 | 2026-09-01 00:50:03 | 48.85438 | 3.04210 | 83° | 9km/h | 27309m | 3.6m/s | -49.0°C | 0.0% | -1.0hPa | 4.9V | 00:00:00 | 00:00:00 | 00:00:00 | |
| DJ2DS-15 | 2026-09-01 00:49:58 | 48.85462 | 3.04220 | 217° | 18km/h | 27286m | 4.9m/s | -48.5°C | 0% | 0hPa | 4.9V | 00:00:00 | 00:00:00 | 00:00:00 | |
| DJ2DS-15 | 2026-09-01 00:49:38 | 48.85481 | 3.04208 | 30° | 9km/h | 27174m | 4.6m/s | -48.7°C | 0% | 0hPa | 4.9V | 00:00:00 | 00:00:00 | 00:00:00 | |
| DB0UT-7 | 2026-09-01 00:49:35 | 48.85483 | 3.04211 | 204° | 11km/h | 27156m | 5.3m/s | -48.8°C | 0% | 0hPa | 4.9V | 00:00:00 | 00:00:00 | 00:00:00 | |
| DM0DOS-11 | 2026-09-01 00:49:27 | 48.85482 | 3.04197 | 1° | 7km/h | 27096m | 6.3m/s | -48.9°C | 0% | 0hPa | 5V | 00:00:00 | 00:00:00 | 00:00:00 | |
| DJ2DS-15 | 2026-09-01 00:49:18 | 48.85471 | 3.04182 | 135° | 11km/h | 27062m | 4.6m/s | -48.8°C | 0% | 0hPa | 4.9V | 00:00:00 | 00:00:00 | 00:00:00 | |
| DL1ZP-14 | 2026-09-01 00:49:15 | 48.85466 | 3.04173 | 7° | 16km/h | 27039m | 5.1m/s | -49.4°C | 0.0% | -1.0hPa | 4.9V | 00:00:00 | 00:00:00 | 00:00:00 | |
| DO1YAY-16 | 2026-09-01 00:49:01 | 48.85441 | 3.04132 | 19° | 7km/h | 26959m | 5.7m/s | -49.5°C | 0.0% | -1.0hPa | 4.9V | 00:00:00 | 00:00:00 | 00:00:00 | |
| DJ2DS-15 | 2026-09-01 00:48:58 | 48.85437 | 3.04128 | 68° | 11km/h | 26948m | 5.6m/s | -48.9°C | 0% | 0hPa | 4.9V | 00:00:00 | 00:00:00 | 00:00:00 | |
| DJ2DS-15 | 2026-09-01 00:48:38 | 48.85404 | 3.04063 | 19° | 11km/h | 26833m | 6.8m/s | -49.3°C | 0% | 0hPa | 4.9V | 00:00:00 | 00:00:00 | 00:00:00 | |
| DB0UT-7 | 2026-09-01 00:48:23 | 48.85368 | 3.04043 | 144° | 9km/h | 26746m | 5.5m/s | -49.2°C | 0% | 0hPa | 4.9V | 00:00:00 | 00:00:00 | 00:00:00 | |
| DJ2DS-15 | 2026-09-01 00:48:17 | 48.85360 | 3.04037 | 344° | 9km/h | 26712m | 5.1m/s | -49.3°C | 0% | 0hPa | 4.9V | 00:00:00 | 00:00:00 | 00:00:00 | |
| DL1ZP-14 | 2026-09-01 00:48:12 | 48.85343 | 3.04043 | 32° | 4km/h | 26682m | 7.1m/s | -49.9°C | 0.0% | -1.0hPa | 5.0V | 00:00:00 | 00:00:00 | 00:00:00 | |
| DJ2DS-15 | 2026-09-01 00:47:55 | 48.85314 | 3.04041 | 188° | 9km/h | 26584m | 5.7m/s | -49.3°C | 0% | 0hPa | 5V | 00:00:00 | 00:00:00 | 00:00:00 | |
| DB0UT-7 | 2026-09-01 00:47:53 | 48.85315 | 3.04043 | 299° | 15km/h | 26572m | 6.6m/s | -49.4°C | 0% | 0hPa | 5V | 00:00:00 | 00:00:00 | 00:00:00 | |
| DM0DOS-11 | 2026-09-01 00:47:42 | 48.85319 | 3.04041 | 196° | 11km/h | 26498m | 4.5m/s | -49.7°C | 0% | 0hPa | 5V | 00:00:00 | 00:00:00 | 00:00:00 | |
| DJ2DS-15 | 2026-09-01 00:47:32 | 48.85324 | 3.04031 | 180° | 11km/h | 26453m | 4.6m/s | -49.6°C | 0% | 0hPa | 5.0V | 00:00:00 | 00:00:00 | 00:00:00 | |
| DJ2DS-15 | 2026-09-01 00:47:11 | 48.85313 | 3.03976 | 54° | 15km/h | 26334m | 6.0m/s | -49.5°C | 0% | 0hPa | 5.0V | 00:00:00 | 00:00:00 | 00:00:00 | |
| DB0UT-7 | 2026-09-01 00:47:10 | 48.85311 | 3.03971 | 50° | 18km/h | 26328m | 5.8m/s | -49.5°C | 0% | 0hPa | 4.9V | 00:00:00 | 00:00:00 | 00:00:00 | |
| DO1YAY-16 | 2026-09-01 00:46:57 | 48.85293 | 3.03912 | 159° | 7km/h | 26247m | 6.2m/s | -50.2°C | 0.0% | -1.0hPa | 5.0V | 00:00:00 | 00:00:00 | 00:00:00 | |
| DB0UT-7 | 2026-09-01 00:46:35 | 48.85234 | 3.03803 | 40° | 22km/h | 26131m | 4.9m/s | -50.4°C | 0% | 0hPa | 5.0V | 00:00:00 | 00:00:00 | 00:00:00 | |
| DJ2DS-15 | 2026-09-01 00:46:32 | 48.85220 | 3.03780 | 36° | 20km/h | 26109m | 5.8m/s | -50.3°C | 0% | 0hPa | 5.0V | 00:00:00 | 00:00:00 | 00:00:00 | |
| DJ2DS-15 | 2026-09-01 00:46:10 | 48.85118 | 3.03748 | 33° | 20km/h | 25991m | 4.1m/s | -50.4°C | 0% | 0hPa | 5.0V | 00:00:00 | 00:00:00 | 00:00:00 | |
| DB0UT-7 | 2026-09-01 00:46:06 | 48.85088 | 3.03742 | 352° | 20km/h | 25963m | 6.2m/s | -50.4°C | 0% | 0hPa | 5V | 00:00:00 | 00:00:00 | 00:00:00 | |
| DM0DOS-11 | 2026-09-01 00:45:51 | 48.85015 | 3.03771 | 27° | 13km/h | 25860m | 6.1m/s | -50.8°C | 0% | 0hPa | 5V | 00:00:00 | 00:00:00 | 00:00:00 | |
| DJ2DS-15 | 2026-09-01 00:45:50 | 48.85021 | 3.03771 | 323° | 15km/h | 25878m | 6.4m/s | -50.6°C | 0% | 0hPa | 5V | 00:00:00 | 00:00:00 | 00:00:00 | |
| DM0DOS-11 | 2026-09-01 00:45:41 | 48.84966 | 3.03774 | 357° | 26km/h | 25800m | 5.1m/s | -51°C | 0% | 0hPa | 5V | 00:00:00 | 00:00:00 | 00:00:00 | |
| DB0UT-7 | 2026-09-01 00:45:32 | 48.84951 | 3.03771 | 18° | 20km/h | 25775m | 6.3m/s | -51.1°C | 0% | 0hPa | 5.0V | 00:00:00 | 00:00:00 | 00:00:00 | |
| DJ2DS-15 | 2026-09-01 00:45:30 | 48.84944 | 3.03770 | 360° | 16km/h | 25764m | 5.0m/s | -51.1°C | 0% | 0hPa | 5.0V | 00:00:00 | 00:00:00 | 00:00:00 | |
| DJ2DS-15 | 2026-09-01 00:45:10 | 48.84860 | 3.03808 | 5° | 18km/h | 25651m | 4.8m/s | -51.0°C | 0% | 0hPa | 5.0V | 00:00:00 | 00:00:00 | 00:00:00 | |
| DM0DOS-11 | 2026-09-01 00:45:06 | 48.84827 | 3.03840 | 336° | 24km/h | 25599m | 5.7m/s | -50.8°C | 0% | 0hPa | 5V | 00:00:00 | 00:00:00 | 00:00:00 | |
| DB0UT-7 | 2026-09-01 00:44:59 | 48.84819 | 3.03847 | 321° | 24km/h | 25587m | 6.1m/s | -50.7°C | 0% | 0hPa | 5.0V | 00:00:00 | 00:00:00 | 00:00:00 | |
| DJ2DS-15 | 2026-09-01 00:44:50 | 48.84782 | 3.03896 | 334° | 24km/h | 25535m | 4.9m/s | -50.8°C | 0% | 0hPa | 5.0V | 00:00:00 | 00:00:00 | 00:00:00 | |
| DJ2DS-15 | 2026-09-01 00:44:31 | 48.84708 | 3.04030 | 313° | 29km/h | 25421m | 6.3m/s | -51.2°C | 0% | 0hPa | 5.0V | 00:00:00 | 00:00:00 | 00:00:00 | |
| DB0UT-7 | 2026-09-01 00:44:29 | 48.84701 | 3.04040 | 319° | 27km/h | 25416m | 4.8m/s | -51.1°C | 0% | 0hPa | 5.0V | 00:00:00 | 00:00:00 | 00:00:00 | |
| DJ2DS-15 | 2026-09-01 00:44:10 | 48.84664 | 3.04236 | 275° | 22km/h | 25307m | 6.3m/s | -50.5°C | 0% | 0hPa | 5.0V | 00:00:00 | 00:00:00 | 00:00:00 | |
| DL1ZP-14 | 2026-09-01 00:44:04 | 48.84649 | 3.04300 | 259° | 20km/h | 25268m | 5.2m/s | -51.0°C | 0.0% | -1.0hPa | 5.0V | 00:00:00 | 00:00:00 | 00:00:00 | |
| DJ2DS-15 | 2026-09-01 00:43:50 | 48.84637 | 3.04401 | 259° | 18km/h | 25194m | 4.1m/s | -50.4°C | 0% | 0hPa | 5.0V | 00:00:00 | 00:00:00 | 00:00:00 | |
| DB0UT-7 | 2026-09-01 00:43:37 | 48.84632 | 3.04477 | 279° | 13km/h | 25121m | 6.4m/s | -50.4°C | 0% | 0hPa | 5.0V | 00:00:00 | 00:00:00 | 00:00:00 | |
| DJ2DS-15 | 2026-09-01 00:43:29 | 48.84638 | 3.04533 | 231° | 13km/h | 25076m | 5.8m/s | -50.4°C | 0% | 0hPa | 5V | 00:00:00 | 00:00:00 | 00:00:00 | |
| DM0DOS-11 | 2026-09-01 00:43:11 | 48.84655 | 3.04607 | 222° | 13km/h | 24951m | 5m/s | -50.7°C | 0% | 0hPa | 5V | 00:00:00 | 00:00:00 | 00:00:00 | |
| DB0UT-7 | 2026-09-01 00:43:06 | 48.84657 | 3.04610 | 221° | 9km/h | 24946m | 5.5m/s | -50.6°C | 0% | 0hPa | 5.0V | 00:00:00 | 00:00:00 | 00:00:00 | |
| DL1ZP-14 | 2026-09-01 00:43:02 | 48.84661 | 3.04605 | 167° | 11km/h | 24916m | 6.5m/s | -51.3°C | 0.0% | -1.0hPa | 5.0V | 00:00:00 | 00:00:00 | 00:00:00 | |
| DM0DOS-11 | 2026-09-01 00:43:01 | 48.84674 | 3.04607 | 248° | 2km/h | 24888m | 5.1m/s | -50.7°C | 0% | 0hPa | 5V | 00:00:00 | 00:00:00 | 00:00:00 | |
| DM0DOS-11 | 2026-09-01 00:42:51 | 48.84685 | 3.04576 | 127° | 13km/h | 24796m | 6.3m/s | -51°C | 0% | 0hPa | 5V | 00:00:00 | 00:00:00 | 00:00:00 | |
| DB0UT-7 | 2026-09-01 00:42:42 | 48.84690 | 3.04569 | 341° | 5km/h | 24774m | 5.0m/s | -50.9°C | 0% | 0hPa | 5V | 00:00:00 | 00:00:00 | 00:00:00 | |
| DM0DOS-11 | 2026-09-01 00:42:22 | 48.84684 | 3.04580 | 277° | 5km/h | 24685m | 6.2m/s | -50.6°C | 0% | 0hPa | 5V | 00:00:00 | 00:00:00 | 00:00:00 | |
| DJ2DS-15 | 2026-09-01 00:42:18 | 48.84685 | 3.04582 | 198° | 13km/h | 24675m | 4.8m/s | -50.5°C | 0% | 0hPa | 5.0V | 00:00:00 | 00:00:00 | 00:00:00 | |
| DM0DOS-11 | 2026-09-01 00:42:12 | 48.84679 | 3.04587 | 291° | 13km/h | 24628m | 6.5m/s | -50.7°C | 0% | 0hPa | 5V | 00:00:00 | 00:00:00 | 00:00:00 | |
| DB0UT-7 | 2026-09-01 00:42:06 | 48.84672 | 3.04604 | 302° | 16km/h | 24607m | 5.0m/s | -50.7°C | 0% | 0hPa | 5.0V | 00:00:00 | 00:00:00 | 00:00:00 | |
| DM0DOS-11 | 2026-09-01 00:42:02 | 48.84659 | 3.04618 | 275° | 7km/h | 24572m | 5.4m/s | -50.8°C | 0% | 0hPa | 5.1V | 00:00:00 | 00:00:00 | 00:00:00 | |
| DM0DOS-11 | 2026-09-01 00:41:52 | 48.84636 | 3.04642 | 314° | 16km/h | 24518m | 5.8m/s | -50.9°C | 0% | 0hPa | 5.1V | 00:00:00 | 00:00:00 | 00:00:00 | |
| DM0DOS-11 | 2026-09-01 00:41:42 | 48.84610 | 3.04696 | 290° | 16km/h | 24464m | 6.2m/s | -51°C | 0% | 0hPa | 5.1V | 00:00:00 | 00:00:00 | 00:00:00 | |
| DB0UT-7 | 2026-09-01 00:41:33 | 48.84601 | 3.04723 | 341° | 11km/h | 24426m | 6.1m/s | -51.1°C | 0% | 0hPa | 5.1V | 00:00:00 | 00:00:00 | 00:00:00 | |
| DM0DOS-11 | 2026-09-01 00:41:32 | 48.84598 | 3.04731 | 301° | 15km/h | 24404m | 5.5m/s | -51.2°C | 0% | 0hPa | 5.1V | 00:00:00 | 00:00:00 | 00:00:00 | |
| DM0DOS-11 | 2026-09-01 00:41:17 | 48.84575 | 3.04775 | 312° | 13km/h | 24330m | 5.4m/s | -51.3°C | 0% | 0hPa | 5.1V | 00:00:00 | 00:00:00 | 00:00:00 | |
| DB0UT-7 | 2026-09-01 00:41:03 | 48.84550 | 3.04782 | 17° | 15km/h | 24268m | 5.5m/s | -51.6°C | 0% | 0hPa | 5.0V | 00:00:00 | 00:00:00 | 00:00:00 | |
| DL1ZP-14 | 2026-09-01 00:40:58 | 48.84531 | 3.04760 | 41° | 5km/h | 24236m | 4.6m/s | -52.4°C | 0.0% | -1.0hPa | 5.0V | 00:00:00 | 00:00:00 | 00:00:00 | |
| DO1YAY-16 | 2026-09-01 00:40:44 | 48.84481 | 3.04747 | 347° | 11km/h | 24161m | 4.8m/s | -52.6°C | 0.0% | -1.0hPa | 5.0V | 00:00:00 | 00:00:00 | 00:00:00 | |
| DL1ZP-14 | 2026-09-01 00:40:27 | 48.84422 | 3.04812 | 302° | 20km/h | 24070m | 5.8m/s | -53.2°C | 0.0% | -1.0hPa | 5.0V | 00:00:00 | 00:00:00 | 00:00:00 | |
| DB0UT-7 | 2026-09-01 00:40:07 | 48.84409 | 3.04964 | 279° | 18km/h | 23974m | 4.8m/s | -52.4°C | 0% | 0hPa | 5.0V | 00:00:00 | 00:00:00 | 00:00:00 | |
| DB0UT-7 | 2026-09-01 00:39:37 | 48.84465 | 3.05114 | 348° | 9km/h | 23818m | 6.0m/s | -52.8°C | 0% | 0hPa | 5.1V | 00:00:00 | 00:00:00 | 00:00:00 | |
| DM0DOS-11 | 2026-09-01 00:39:25 | 48.84483 | 3.05115 | 207° | 15km/h | 23729m | 4.8m/s | -52.6°C | 0% | 0hPa | 5.1V | 00:00:00 | 00:00:00 | 00:00:00 | |
| DM0DOS-11 | 2026-09-01 00:39:09 | 48.84491 | 3.05084 | 90° | 0km/h | 23667m | 6.3m/s | -52.6°C | 0% | 0hPa | 5.1V | 00:00:00 | 00:00:00 | 00:00:00 | |
| DB0UT-7 | 2026-09-01 00:39:07 | 48.84490 | 3.05084 | 318° | 15km/h | 23662m | 5.3m/s | -52.5°C | 0% | 0hPa | 5.1V | 00:00:00 | 00:00:00 | 00:00:00 | |
| DM0DOS-11 | 2026-09-01 00:38:59 | 48.84470 | 3.05063 | 95° | 9km/h | 23613m | 5.8m/s | -52.8°C | 0% | 0hPa | 5.1V | 00:00:00 | 00:00:00 | 00:00:00 | |
| DM0DOS-11 | 2026-09-01 00:38:53 | 48.84427 | 3.05032 | 36° | 18km/h | 23561m | 6m/s | -52.8°C | 0% | 0hPa | 5.1V | 00:00:00 | 00:00:00 | 00:00:00 | |
| DM0DOS-11 | 2026-09-01 00:38:43 | 48.84372 | 3.05018 | 26° | 20km/h | 23510m | 6.2m/s | -52.5°C | 0% | 0hPa | 5.1V | 00:00:00 | 00:00:00 | 00:00:00 | |
| DB0UT-7 | 2026-09-01 00:38:37 | 48.84368 | 3.05014 | 52° | 11km/h | 23505m | 5.6m/s | -52.4°C | 0% | 0hPa | 5.1V | 00:00:00 | 00:00:00 | 00:00:00 | |
| DM0DOS-11 | 2026-09-01 00:38:28 | 48.84328 | 3.04999 | 34° | 11km/h | 23441m | 6.4m/s | -52.1°C | 0% | 0hPa | 5.1V | 00:00:00 | 00:00:00 | 00:00:00 | |
| DM0DOS-11 | 2026-09-01 00:38:17 | 48.84296 | 3.05000 | 328° | 9km/h | 23371m | 5.9m/s | -51.8°C | 0% | 0hPa | 5.1V | 00:00:00 | 00:00:00 | 00:00:00 | |
| DB0UT-7 | 2026-09-01 00:38:07 | 48.84293 | 3.05016 | 293° | 11km/h | 23345m | 4.9m/s | -51.6°C | 0% | 0hPa | 5.1V | 00:00:00 | 00:00:00 | 00:00:00 | |
| DM0DOS-11 | 2026-09-01 00:38:01 | 48.84281 | 3.05022 | 292° | 16km/h | 23307m | 5.8m/s | -51.5°C | 0% | 0hPa | 5.1V | 00:00:00 | 00:00:00 | 00:00:00 | |
| DB0UT-7 | 2026-09-01 00:37:37 | 48.84289 | 3.05113 | 224° | 15km/h | 23182m | 5.9m/s | -51.3°C | 0% | 0hPa | 5.1V | 00:00:00 | 00:00:00 | 00:00:00 | |
| DO1YAY-16 | 2026-09-01 00:37:07 | 48.84374 | 3.05209 | 204° | 13km/h | 23012m | 4.5m/s | -51.8°C | 0.0% | -1.0hPa | 5.1V | 00:00:00 | 00:00:00 | 00:00:00 | |
| DB0UT-7 | 2026-09-01 00:36:37 | 48.84413 | 3.05228 | 351° | 9km/h | 22853m | 5.2m/s | -51.5°C | 0% | 0hPa | 5.1V | 00:00:00 | 00:00:00 | 00:00:00 | |
| DO1YAY-16 | 2026-09-01 00:36:36 | 48.84410 | 3.05229 | 310° | 4km/h | 22842m | 6.0m/s | -52.2°C | 0.0% | -1.0hPa | 5.1V | 00:00:00 | 00:00:00 | 00:00:00 | |
| DB0UT-7 | 2026-09-01 00:36:07 | 48.84438 | 3.05284 | 179° | 13km/h | 22689m | 6.1m/s | -51.5°C | 0% | 0hPa | 5.1V | 00:00:00 | 00:00:00 | 00:00:00 | |
| DO1YAY-16 | 2026-09-01 00:36:05 | 48.84453 | 3.05285 | 200° | 20km/h | 22673m | 5.8m/s | -52.1°C | 0.0% | -1.0hPa | 5.1V | 00:00:00 | 00:00:00 | 00:00:00 | |
| DB0UT-7 | 2026-09-01 00:35:37 | 48.84490 | 3.05279 | 77° | 18km/h | 22526m | 5.5m/s | -51.4°C | 0% | 0hPa | 5.1V | 00:00:00 | 00:00:00 | 00:00:00 | |
| DM0DOS-11 | 2026-09-01 00:35:30 | 48.84488 | 3.05249 | 92° | 13km/h | 22478m | 5m/s | -51.5°C | 0% | 0hPa | 5.1V | 00:00:00 | 00:00:00 | 00:00:00 | |
| DM0DOS-11 | 2026-09-01 00:35:12 | 48.84475 | 3.05192 | 46° | 11km/h | 22386m | 4.2m/s | -52°C | 0% | 0hPa | 5.1V | 00:00:00 | 00:00:00 | 00:00:00 | |
| DO1YAY-16 | 2026-09-01 00:35:03 | 48.84454 | 3.05165 | 26° | 0km/h | 22343m | 5.6m/s | -52.8°C | 0.0% | -1.0hPa | 5.1V | 00:00:00 | 00:00:00 | 00:00:00 | |
| DM0DOS-11 | 2026-09-01 00:35:00 | 48.84445 | 3.05154 | 26° | 22km/h | 22318m | 4.9m/s | -52.3°C | 0% | 0hPa | 5.1V | 00:00:00 | 00:00:00 | 00:00:00 | |
| DM0DOS-11 | 2026-09-01 00:34:48 | 48.84386 | 3.05094 | 48° | 29km/h | 22243m | 6m/s | -52.6°C | 0% | 0hPa | 5.2V | 00:00:00 | 00:00:00 | 00:00:00 | |
| DB0UT-7 | 2026-09-01 00:34:42 | 48.84381 | 3.05085 | 53° | 24km/h | 22239m | 4.2m/s | -52.5°C | 0% | 0hPa | 5.1V | 00:00:00 | 00:00:00 | 00:00:00 | |
| DO1YAY-16 | 2026-09-01 00:34:31 | 48.84321 | 3.05032 | 29° | 33km/h | 22182m | 4.5m/s | -53.1°C | 0.0% | -1.0hPa | 5.1V | 00:00:00 | 00:00:00 | 00:00:00 | |
| DB0UT-7 | 2026-09-01 00:34:12 | 48.84222 | 3.04979 | 335° | 24km/h | 22085m | 4.1m/s | -52.8°C | 0% | 0hPa | 5.1V | 00:00:00 | 00:00:00 | 00:00:00 | |
| DO1YAY-16 | 2026-09-01 00:34:00 | 48.84143 | 3.04999 | 343° | 26km/h | 22014m | 5.3m/s | -53.5°C | 0.1% | -1.0hPa | 5.1V | 00:00:00 | 00:00:00 | 00:00:00 | |
| DB0UT-7 | 2026-09-01 00:33:37 | 48.84060 | 3.05072 | 292° | 16km/h | 21905m | 5.7m/s | -52.0°C | 0% | 0hPa | 5.1V | 00:00:00 | 00:00:00 | 00:00:00 | |
| DO1YAY-16 | 2026-09-01 00:33:29 | 48.84034 | 3.05097 | 237° | 11km/h | 21859m | 5.2m/s | -52.5°C | 0.1% | -1.0hPa | 5.1V | 00:00:00 | 00:00:00 | 00:00:00 | |
| DL1ZP-14 | 2026-09-01 00:33:12 | 48.84025 | 3.05164 | 23° | 7km/h | 21764m | 5.1m/s | -52.4°C | 0.1% | -1.0hPa | 5.1V | 00:00:00 | 00:00:00 | 00:00:00 | |
| DB0UT-7 | 2026-09-01 00:32:50 | 48.84062 | 3.05191 | 165° | 11km/h | 21663m | 5.0m/s | -51.7°C | 0% | 0hPa | 5.1V | 00:00:00 | 00:00:00 | 00:00:00 | |
| DL1ZP-14 | 2026-09-01 00:32:41 | 48.84071 | 3.05164 | 181° | 16km/h | 21612m | 5.3m/s | -52.2°C | 0.1% | -1.0hPa | 5.1V | 00:00:00 | 00:00:00 | 00:00:00 | |
| DB0UT-7 | 2026-09-01 00:32:20 | 48.84092 | 3.05183 | 331° | 11km/h | 21506m | 4.9m/s | -51.5°C | 0% | 0hPa | 5.1V | 00:00:00 | 00:00:00 | 00:00:00 | |
| DL1ZP-14 | 2026-09-01 00:32:10 | 48.84095 | 3.05227 | 7° | 5km/h | 21449m | 5.6m/s | -52.6°C | 0.1% | -1.0hPa | 5.1V | 00:00:00 | 00:00:00 | 00:00:00 | |
| DM0DOS-11 | 2026-09-01 00:32:04 | 48.84101 | 3.05229 | 101° | 2km/h | 21396m | 6m/s | -52.2°C | 0% | 0hPa | 5.2V | 00:00:00 | 00:00:00 | 00:00:00 | |
| DB0UT-7 | 2026-09-01 00:31:49 | 48.84104 | 3.05199 | 102° | 15km/h | 21345m | 4.9m/s | -52.3°C | 0% | 0hPa | 5.1V | 00:00:00 | 00:00:00 | 00:00:00 | |
| DL1ZP-14 | 2026-09-01 00:31:39 | 48.84095 | 3.05149 | 112° | 15km/h | 21287m | 4.9m/s | -52.9°C | 0.2% | -1.0hPa | 5.1V | 00:00:00 | 00:00:00 | 00:00:00 | |
| DB0UT-7 | 2026-09-01 00:31:18 | 48.84046 | 3.05096 | 27° | 11km/h | 21186m | 5.8m/s | -51.9°C | 0% | 0hPa | 5.1V | 00:00:00 | 00:00:00 | 00:00:00 | |
| DL1ZP-14 | 2026-09-01 00:31:08 | 48.84025 | 3.05079 | 340° | 15km/h | 21131m | 3.7m/s | -52.3°C | 0.2% | -1.0hPa | 5.1V | 00:00:00 | 00:00:00 | 00:00:00 | |
| DB0UT-7 | 2026-09-01 00:30:48 | 48.84013 | 3.05053 | 74° | 9km/h | 21034m | 4.6m/s | -52.1°C | 0% | 0hPa | 5.1V | 00:00:00 | 00:00:00 | 00:00:00 | |
| DL1ZP-14 | 2026-09-01 00:30:37 | 48.83999 | 3.05014 | 85° | 18km/h | 20973m | 4.4m/s | -52.8°C | 0.3% | -1.0hPa | 5.1V | 00:00:00 | 00:00:00 | 00:00:00 | |
| DO1YAY-16 | 2026-09-01 00:30:23 | 48.83983 | 3.04946 | 41° | 13km/h | 20900m | 5.6m/s | -52.6°C | 0.3% | -1.0hPa | 5.2V | 00:00:00 | 00:00:00 | 00:00:00 | |
| DL1ZP-14 | 2026-09-01 00:30:06 | 48.83977 | 3.04842 | 94° | 11km/h | 20815m | 5.7m/s | -52.8°C | 0.4% | -1.0hPa | 5.2V | 00:00:00 | 00:00:00 | 00:00:00 | |
| DM0DOS-11 | 2026-09-01 00:30:01 | 48.83963 | 3.04786 | 75° | 9km/h | 20765m | 4.4m/s | -52.2°C | 0% | 0hPa | 5.2V | 00:00:00 | 00:00:00 | 00:00:00 | |
| DB0UT-7 | 2026-09-01 00:29:34 | 48.83941 | 3.04732 | 95° | 9km/h | 20658m | 5.6m/s | -52.1°C | 0% | 0hPa | 5.2V | 00:00:00 | 00:00:00 | 00:00:00 | |
| DO1YAY-16 | 2026-09-01 00:29:21 | 48.83949 | 3.04707 | 82° | 7km/h | 20587m | 5.5m/s | -52.4°C | 0.4% | -1.0hPa | 5.2V | 00:00:00 | 00:00:00 | 00:00:00 | |
| DL1ZP-14 | 2026-09-01 00:29:04 | 48.83979 | 3.04664 | 136° | 13km/h | 20498m | 5.2m/s | -52.3°C | 0.4% | -1.0hPa | 5.2V | 00:00:00 | 00:00:00 | 00:00:00 | |
| DM0DOS-11 | 2026-09-01 00:28:40 | 48.84051 | 3.04515 | 119° | 29km/h | 20370m | 6m/s | -51.5°C | 0% | 0hPa | 5.2V | 00:00:00 | 00:00:00 | 00:00:00 | |
| DM0DOS-11 | 2026-09-01 00:28:28 | 48.84081 | 3.04407 | 101° | 35km/h | 20309m | 5.5m/s | -52.1°C | 0% | 0hPa | 5.2V | 00:00:00 | 00:00:00 | 00:00:00 | |
| DB0UT-7 | 2026-09-01 00:28:20 | 48.84082 | 3.04366 | 94° | 26km/h | 20296m | 4.7m/s | -52.4°C | 0% | 0hPa | 5.2V | 00:00:00 | 00:00:00 | 00:00:00 | |
| DM0DOS-11 | 2026-09-01 00:28:12 | 48.84095 | 3.04247 | 101° | 22km/h | 20234m | 5.1m/s | -52.4°C | 0% | 0hPa | 5.2V | 00:00:00 | 00:00:00 | 00:00:00 | |
| DM0DOS-11 | 2026-09-01 00:28:02 | 48.84100 | 3.04153 | 75° | 27km/h | 20187m | 4.8m/s | -52.5°C | 0% | 0hPa | 5.2V | 00:00:00 | 00:00:00 | 00:00:00 | |
| DM0DOS-11 | 2026-09-01 00:27:52 | 48.84100 | 3.04054 | 94° | 24km/h | 20138m | 4.4m/s | -52.6°C | 0% | 0hPa | 5.2V | 00:00:00 | 00:00:00 | 00:00:00 | |
| DB0UT-7 | 2026-09-01 00:27:50 | 48.84098 | 3.04085 | 91° | 20km/h | 20153m | 4.3m/s | -52.5°C | 0% | 0hPa | 5.2V | 00:00:00 | 00:00:00 | 00:00:00 | |
| DM0DOS-11 | 2026-09-01 00:27:42 | 48.84093 | 3.03974 | 104° | 24km/h | 20084m | 5.1m/s | -52.6°C | 0% | 0hPa | 5.2V | 00:00:00 | 00:00:00 | 00:00:00 | |
| DM0DOS-11 | 2026-09-01 00:27:26 | 48.84105 | 3.03902 | 125° | 24km/h | 20025m | 5m/s | -52.5°C | 0% | 0hPa | 5.2V | 00:00:00 | 00:00:00 | 00:00:00 | |
| DB0UT-7 | 2026-09-01 00:27:20 | 48.84111 | 3.03870 | 83° | 27km/h | 20006m | 3.7m/s | -52.4°C | 0% | 0hPa | 5.2V | 00:00:00 | 00:00:00 | 00:00:00 | |
| DM0DOS-11 | 2026-09-01 00:27:16 | 48.84124 | 3.03837 | 111° | 26km/h | 19976m | 5.3m/s | -52.3°C | 0% | 0hPa | 5.2V | 00:00:00 | 00:00:00 | 00:00:00 | |
| DM0DOS-11 | 2026-09-01 00:27:04 | 48.84156 | 3.03748 | 120° | 35km/h | 19921m | 5.6m/s | -52.8°C | 0% | 0hPa | 5.2V | 00:00:00 | 00:00:00 | 00:00:00 | |
| DL1ZP-14 | 2026-09-01 00:27:00 | 48.84171 | 3.03694 | 120° | 35km/h | 19903m | 4.8m/s | -53.4°C | 0.4% | -1.0hPa | 5.2V | 00:00:00 | 00:00:00 | 00:00:00 | |
| DO1YAY-16 | 2026-09-01 00:26:46 | 48.84218 | 3.03526 | 116° | 33km/h | 19834m | 4.2m/s | -53.5°C | 0.4% | -1.0hPa | 5.2V | 00:00:00 | 00:00:00 | 00:00:00 | |
| DB0UT-7 | 2026-09-01 00:26:11 | 48.84259 | 3.03123 | 84° | 33km/h | 19666m | 5.4m/s | -52.9°C | 0% | 0hPa | 5.2V | 00:00:00 | 00:00:00 | 00:00:00 | |
| DM0DOS-11 | 2026-09-01 00:25:57 | 48.84237 | 3.02947 | 64° | 26km/h | 19589m | 5.5m/s | -53.2°C | 0% | 0hPa | 5.2V | 00:00:00 | 00:00:00 | 00:00:00 | |
| DM0DOS-11 | 2026-09-01 00:25:42 | 48.84196 | 3.02770 | 81° | 37km/h | 19514m | 5.7m/s | -53.1°C | 0% | 0hPa | 5.2V | 00:00:00 | 00:00:00 | 00:00:00 | |
| DB0UT-7 | 2026-09-01 00:25:41 | 48.84196 | 3.02769 | 82° | 33km/h | 19515m | 5.6m/s | -53.1°C | 0% | 0hPa | 5.2V | 00:00:00 | 00:00:00 | 00:00:00 | |
| DM0DOS-11 | 2026-09-01 00:25:34 | 48.84155 | 3.02636 | 63° | 47km/h | 19465m | 4.6m/s | -53.2°C | 0% | 0hPa | 5.2V | 00:00:00 | 00:00:00 | 00:00:00 | |
| DM0DOS-11 | 2026-09-01 00:25:24 | 48.84100 | 3.02469 | 56° | 42km/h | 19406m | 5.5m/s | -53°C | 0% | 0hPa | 5.2V | 00:00:00 | 00:00:00 | 00:00:00 | |
| DM0DOS-11 | 2026-09-01 00:25:14 | 48.84053 | 3.02354 | 57° | 31km/h | 19358m | 4.8m/s | -52.8°C | 0% | 0hPa | 5.2V | 00:00:00 | 00:00:00 | 00:00:00 | |
| DM0DOS-11 | 2026-09-01 00:24:58 | 48.84005 | 3.02208 | 50° | 29km/h | 19299m | 5.5m/s | -53.1°C | 0% | 0hPa | 5.2V | 00:00:00 | 00:00:00 | 00:00:00 | |
| DM0DOS-11 | 2026-09-01 00:24:48 | 48.83958 | 3.02125 | 54° | 22km/h | 19250m | 4.3m/s | -53.4°C | 0% | 0hPa | 5.2V | 00:00:00 | 00:00:00 | 00:00:00 | |
| DM0DOS-11 | 2026-09-01 00:24:38 | 48.83905 | 3.02053 | 23° | 22km/h | 19202m | 5m/s | -53°C | 0% | 0hPa | 5.3V | 00:00:00 | 00:00:00 | 00:00:00 | |
| DM0DOS-11 | 2026-09-01 00:24:18 | 48.83815 | 3.01920 | 57° | 22km/h | 19090m | 4.3m/s | -52.6°C | 0% | 0hPa | 5.3V | 00:00:00 | 00:00:00 | 00:00:00 | |
| DB0UT-7 | 2026-09-01 00:24:08 | 48.83802 | 3.01891 | 75° | 24km/h | 19054m | 5.9m/s | -52.3°C | 0% | 0hPa | 5.2V | 00:00:00 | 00:00:00 | 00:00:00 | |
| DB0UT-7 | 2026-09-01 00:23:38 | 48.83805 | 3.01610 | 87° | 40km/h | 18901m | 5.4m/s | -52.1°C | 0% | 0hPa | 5.2V | 00:00:00 | 00:00:00 | 00:00:00 | |
| DL1ZP-14 | 2026-09-01 00:23:22 | 48.83819 | 3.01380 | 96° | 31km/h | 18825m | 4.8m/s | -52.8°C | 0.8% | -1.0hPa | 5.2V | 00:00:00 | 00:00:00 | 00:00:00 | |
| DB0UT-7 | 2026-09-01 00:22:56 | 48.83801 | 3.00986 | 87° | 35km/h | 18707m | 4.2m/s | -52.7°C | 0% | 0hPa | 5.2V | 00:00:00 | 00:00:00 | 00:00:00 | |
| DL1ZP-14 | 2026-09-01 00:22:51 | 48.83804 | 3.00894 | 84° | 37km/h | 18678m | 5.0m/s | -53.3°C | 1.0% | -1.0hPa | 5.2V | 00:00:00 | 00:00:00 | 00:00:00 | |
| DB0UT-7 | 2026-09-01 00:22:26 | 48.83782 | 3.00595 | 91° | 27km/h | 18562m | 4.3m/s | -52.1°C | 0% | 0hPa | 5.2V | 00:00:00 | 00:00:00 | 00:00:00 | |
| DL1ZP-14 | 2026-09-01 00:22:20 | 48.83771 | 3.00517 | 101° | 33km/h | 18529m | 4.7m/s | -53.0°C | 0.8% | -1.0hPa | 5.2V | 00:00:00 | 00:00:00 | 00:00:00 | |
| DB0UT-7 | 2026-09-01 00:21:56 | 48.83758 | 3.00296 | 90° | 33km/h | 18418m | 4.2m/s | -52.5°C | 0% | 0hPa | 5.2V | 00:00:00 | 00:00:00 | 00:00:00 | |
| DL1ZP-14 | 2026-09-01 00:21:49 | 48.83744 | 3.00189 | 66° | 33km/h | 18381m | 5.3m/s | -53.7°C | 1.0% | -1.0hPa | 5.2V | 00:00:00 | 00:00:00 | 00:00:00 | |
| DL1ZP-14 | 2026-09-01 00:21:19 | 48.83629 | 2.99748 | 61° | 37km/h | 18229m | 4.6m/s | -53.6°C | 1.1% | -1.0hPa | 5.2V | 00:00:00 | 00:00:00 | 00:00:00 | |
| DB0UT-7 | 2026-09-01 00:20:57 | 48.83562 | 2.99533 | 70° | 26km/h | 18130m | 5.1m/s | -52.5°C | 0% | 0hPa | 5.3V | 00:00:00 | 00:00:00 | 00:00:00 | |
| DB0UT-7 | 2026-09-01 00:20:27 | 48.83519 | 2.99258 | 46° | 31km/h | 17985m | 5.4m/s | -53.1°C | 0% | 0hPa | 5.3V | 00:00:00 | 00:00:00 | 00:00:00 | |
| DB0UT-7 | 2026-09-01 00:19:19 | 48.83411 | 2.98586 | 95° | 42km/h | 17651m | 4.1m/s | -52.5°C | 0% | 0hPa | 5.3V | 00:00:00 | 00:00:00 | 00:00:00 | |
| DM0DOS-11 | 2026-09-01 00:19:06 | 48.83423 | 2.98309 | 95° | 42km/h | 17566m | 5.3m/s | -52.4°C | 0% | 0hPa | 5.3V | 00:00:00 | 00:00:00 | 00:00:00 | |
| DM0DOS-11 | 2026-09-01 00:18:56 | 48.83421 | 2.98136 | 87° | 42km/h | 17518m | 3.4m/s | -52.7°C | 0% | 0hPa | 5.3V | 00:00:00 | 00:00:00 | 00:00:00 | |
| DB0UT-7 | 2026-09-01 00:18:49 | 48.83420 | 2.98100 | 88° | 47km/h | 17510m | 4.5m/s | -52.9°C | 0% | 0hPa | 5.3V | 00:00:00 | 00:00:00 | 00:00:00 | |
| DM0DOS-11 | 2026-09-01 00:18:46 | 48.83410 | 2.97933 | 77° | 53km/h | 17467m | 4.9m/s | -53.1°C | 0% | 0hPa | 5.3V | 00:00:00 | 00:00:00 | 00:00:00 | |
| DM0DOS-11 | 2026-09-01 00:18:30 | 48.83358 | 2.97634 | 65° | 44km/h | 17389m | 4m/s | -53.1°C | 0% | 0hPa | 5.3V | 00:00:00 | 00:00:00 | 00:00:00 | |
| DM0DOS-11 | 2026-09-01 00:18:19 | 48.83324 | 2.97450 | 65° | 42km/h | 17336m | 4.8m/s | -53.5°C | 0% | 0hPa | 5.3V | 00:00:00 | 00:00:00 | 00:00:00 | |
| DB0UT-7 | 2026-09-01 00:18:08 | 48.83305 | 2.97367 | 73° | 38km/h | 17313m | 5.0m/s | -53.4°C | 0% | 0hPa | 5.3V | 00:00:00 | 00:00:00 | 00:00:00 | |
| DM0DOS-11 | 2026-09-01 00:18:03 | 48.83270 | 2.97280 | 54° | 40km/h | 17282m | 4.5m/s | -53.2°C | 0% | 0hPa | 5.3V | 00:00:00 | 00:00:00 | 00:00:00 | |
| DM0DOS-11 | 2026-09-01 00:17:48 | 48.83206 | 2.97065 | 68° | 42km/h | 17209m | 4.8m/s | -52.9°C | 0% | 0hPa | 5.3V | 00:00:00 | 00:00:00 | 00:00:00 | |
| DM0DOS-11 | 2026-09-01 00:17:43 | 48.83170 | 2.96929 | 64° | 38km/h | 17162m | 4.7m/s | -53.3°C | 0% | 0hPa | 5.3V | 00:00:00 | 00:00:00 | 00:00:00 | |
| DB0UT-7 | 2026-09-01 00:17:26 | 48.83142 | 2.96777 | 78° | 40km/h | 17110m | 4.5m/s | -53.4°C | 0% | 0hPa | 5.3V | 00:00:00 | 00:00:00 | 00:00:00 | |
| DM0DOS-11 | 2026-09-01 00:17:22 | 48.83134 | 2.96709 | 84° | 33km/h | 17085m | 4.9m/s | -53.6°C | 0% | 0hPa | 5.3V | 00:00:00 | 00:00:00 | 00:00:00 | |
| DM0DOS-11 | 2026-09-01 00:17:08 | 48.83131 | 2.96478 | 87° | 42km/h | 17014m | 5.1m/s | -53.5°C | 0% | 0hPa | 5.3V | 00:00:00 | 00:00:00 | 00:00:00 | |
| DM0DOS-11 | 2026-09-01 00:16:57 | 48.83118 | 2.96305 | 86° | 42km/h | 16967m | 4.9m/s | -53.9°C | 0% | 0hPa | 5.3V | 00:00:00 | 00:00:00 | 00:00:00 | |
| DM0DOS-11 | 2026-09-01 00:16:47 | 48.83097 | 2.96122 | 84° | 47km/h | 16919m | 4.3m/s | -53.9°C | 0% | 0hPa | 5.3V | 00:00:00 | 00:00:00 | 00:00:00 | |
| DB0UT-7 | 2026-09-01 00:15:54 | 48.82969 | 2.95148 | 69° | 49km/h | 16678m | 4.4m/s | -53.3°C | 0% | 0hPa | 5.3V | 00:00:00 | 00:00:00 | 00:00:00 | |
| DB0UT-7 | 2026-09-01 00:15:24 | 48.82847 | 2.94603 | 83° | 49km/h | 16535m | 4.3m/s | -53.0°C | 0% | 0hPa | 5.3V | 00:00:00 | 00:00:00 | 00:00:00 | |
| DM0DOS-11 | 2026-09-01 00:14:29 | 48.82819 | 2.93538 | 97° | 53km/h | 16259m | 4.1m/s | -53°C | 0% | 0hPa | 5.4V | 00:00:00 | 00:00:00 | 00:00:00 | |
| DM0DOS-11 | 2026-09-01 00:14:11 | 48.82832 | 2.93241 | 97° | 46km/h | 16185m | 4m/s | -53°C | 0% | 0hPa | 5.4V | 00:00:00 | 00:00:00 | 00:00:00 | |
| DB0UT-7 | 2026-09-01 00:14:09 | 48.82831 | 2.93258 | 99° | 51km/h | 16189m | 4.4m/s | -52.9°C | 0% | 0hPa | 5.4V | 00:00:00 | 00:00:00 | 00:00:00 | |
| DM0DOS-11 | 2026-09-01 00:13:49 | 48.82875 | 2.92816 | 97° | 53km/h | 16078m | 3.5m/s | -53.2°C | 0% | 0hPa | 5.4V | 00:00:00 | 00:00:00 | 00:00:00 | |
| DM0DOS-11 | 2026-09-01 00:13:41 | 48.82901 | 2.92611 | 94° | 55km/h | 16028m | 4.2m/s | -53.5°C | 0% | 0hPa | 5.4V | 00:00:00 | 00:00:00 | 00:00:00 | |
| DB0UT-7 | 2026-09-01 00:13:39 | 48.82894 | 2.92673 | 104° | 55km/h | 16044m | 4.3m/s | -53.4°C | 0% | 0hPa | 5.4V | 00:00:00 | 00:00:00 | 00:00:00 | |
| DM0DOS-11 | 2026-09-01 00:13:28 | 48.82924 | 2.92319 | 96° | 62km/h | 15969m | 3.9m/s | -54°C | 0% | 0hPa | 5.4V | 00:00:00 | 00:00:00 | 00:00:00 | |
| DM0DOS-11 | 2026-09-01 00:13:09 | 48.82951 | 2.91881 | 96° | 66km/h | 15886m | 4.6m/s | -54.4°C | 0% | 0hPa | 5.4V | 00:00:00 | 00:00:00 | 00:00:00 | |
| DB0UT-7 | 2026-09-01 00:12:44 | 48.82976 | 2.91432 | 99° | 60km/h | 15796m | 5.2m/s | -54.5°C | 0% | 0hPa | 5.3V | 00:00:00 | 00:00:00 | 00:00:00 | |
| DB0UT-7 | 2026-09-01 00:12:14 | 48.83084 | 2.90758 | 101° | 68km/h | 15660m | 4.4m/s | -55.0°C | 0% | 0hPa | 5.4V | 00:00:00 | 00:00:00 | 00:00:00 | |
| DB0UT-7 | 2026-09-01 00:11:44 | 48.83186 | 2.89991 | 98° | 69km/h | 15527m | 4.0m/s | -55.4°C | 0% | 0hPa | 5.4V | 00:00:00 | 00:00:00 | 00:00:00 | |
| DB0UT-7 | 2026-09-01 00:10:46 | 48.83347 | 2.88492 | 103° | 69km/h | 15270m | 4.2m/s | -54.8°C | 0% | 0hPa | 5.4V | 00:00:00 | 00:00:00 | 00:00:00 | |
| DB0UT-7 | 2026-09-01 00:10:16 | 48.83451 | 2.87708 | 99° | 71km/h | 15135m | 3.8m/s | -55.1°C | 0% | 0hPa | 5.4V | 00:00:00 | 00:00:00 | 00:00:00 | |
| DB0UT-7 | 2026-09-01 00:09:36 | 48.83497 | 2.86556 | 91° | 78km/h | 14957m | 4.5m/s | -54.7°C | 0% | 0hPa | 5.4V | 00:00:00 | 00:00:00 | 00:00:00 | |
| DM0DOS-11 | 2026-09-01 00:09:20 | 48.83498 | 2.85975 | 87° | 80km/h | 14870m | 4.5m/s | -54.5°C | 0% | 0hPa | 5.4V | 00:00:00 | 00:00:00 | 00:00:00 | |
| DM0DOS-11 | 2026-09-01 00:09:11 | 48.83493 | 2.85651 | 91° | 80km/h | 14822m | 5m/s | -54.6°C | 0% | 0hPa | 5.4V | 00:00:00 | 00:00:00 | 00:00:00 | |
| DB0UT-7 | 2026-09-01 00:09:03 | 48.83492 | 2.85559 | 88° | 82km/h | 14808m | 5.1m/s | -54.5°C | 0% | 0hPa | 5.4V | 00:00:00 | 00:00:00 | 00:00:00 | |
| DM0DOS-11 | 2026-09-01 00:08:59 | 48.83484 | 2.85314 | 90° | 84km/h | 14769m | 4.5m/s | -54.5°C | 0% | 0hPa | 5.4V | 00:00:00 | 00:00:00 | 00:00:00 | |
| DM0DOS-11 | 2026-09-01 00:08:47 | 48.83466 | 2.84898 | 84° | 86km/h | 14713m | 4.7m/s | -54.6°C | 0% | 0hPa | 5.4V | 00:00:00 | 00:00:00 | 00:00:00 | |
| DM0DOS-11 | 2026-09-01 00:08:25 | 48.83399 | 2.84241 | 79° | 77km/h | 14613m | 5m/s | -54.2°C | 0% | 0hPa | 5.4V | 00:00:00 | 00:00:00 | 00:00:00 | |
| DM0DOS-11 | 2026-09-01 00:08:02 | 48.83360 | 2.83667 | 92° | 75km/h | 14518m | 4m/s | -54.4°C | 0% | 0hPa | 5.4V | 00:00:00 | 00:00:00 | 00:00:00 | |
| DM0DOS-11 | 2026-09-01 00:07:55 | 48.83340 | 2.83362 | 85° | 84km/h | 14472m | 4.3m/s | -54.4°C | 0% | 0hPa | 5.4V | 00:00:00 | 00:00:00 | 00:00:00 | |
| DM0DOS-11 | 2026-09-01 00:07:44 | 48.83305 | 2.83025 | 80° | 82km/h | 14423m | 4.1m/s | -54.2°C | 0% | 0hPa | 5.4V | 00:00:00 | 00:00:00 | 00:00:00 | |
| DB0UT-7 | 2026-09-01 00:07:20 | 48.83223 | 2.82456 | 72° | 78km/h | 14336m | 4.3m/s | -53.8°C | 0% | 0hPa | 5.4V | 00:00:00 | 00:00:00 | 00:00:00 | |
| DM0DOS-11 | 2026-09-01 00:07:02 | 48.83091 | 2.81845 | 69° | 80km/h | 14242m | 4.5m/s | -53.7°C | 0% | 0hPa | 5.4V | 00:00:00 | 00:00:00 | 00:00:00 | |
| DB0UT-7 | 2026-09-01 00:06:50 | 48.83023 | 2.81604 | 67° | 73km/h | 14204m | 3.8m/s | -53.5°C | 0% | 0hPa | 5.4V | 00:00:00 | 00:00:00 | 00:00:00 | |
| DM0DOS-11 | 2026-09-01 00:06:02 | 48.82726 | 2.80382 | 75° | 64km/h | 13986m | 4.4m/s | -53°C | 0% | 0hPa | 5.5V | 00:00:00 | 00:00:00 | 00:00:00 | |
| DB0UT-7 | 2026-09-01 00:05:39 | 48.82668 | 2.79809 | 81° | 73km/h | 13894m | 3.4m/s | -53.3°C | 0% | 0hPa | 5.4V | 00:00:00 | 00:00:00 | 00:00:00 | |
| DB0UT-7 | 2026-09-01 00:05:09 | 48.82556 | 2.78984 | 75° | 77km/h | 13767m | 4.3m/s | -53.2°C | 0% | 0hPa | 5.4V | 00:00:00 | 00:00:00 | 00:00:00 | |
| DB0UT-7 | 2026-09-01 00:03:55 | 48.82433 | 2.76946 | 90° | 71km/h | 13449m | 4.1m/s | -54.2°C | 0% | 0hPa | 5.4V | 00:00:00 | 00:00:00 | 00:00:00 | |
| DB0UT-7 | 2026-09-01 00:03:38 | 48.82444 | 2.76132 | 94° | 89km/h | 13316m | 3.9m/s | -54.1°C | 0% | 0hPa | 5.4V | 00:00:00 | 00:00:00 | 00:00:00 | |
| DB0UT-7 | 2026-09-01 00:02:15 | 48.82547 | 2.73817 | 91° | 99km/h | 12995m | 3.8m/s | -54.8°C | 0% | 0hPa | 5.4V | 00:00:00 | 00:00:00 | 00:00:00 | |
| DB0UT-7 | 2026-09-01 00:01:59 | 48.82489 | 2.72687 | 79° | 86km/h | 12864m | 4.2m/s | -56.2°C | 0% | 0hPa | 5.4V | 00:00:00 | 00:00:00 | 00:00:00 | |
| DB0UT-7 | 2026-09-01 00:00:30 | 48.82367 | 2.70302 | 88° | 91km/h | 12539m | 3.7m/s | -59.5°C | 0% | 0hPa | 5.5V | 00:00:00 | 00:00:00 | 00:00:00 | |
| DB0UT-7 | 2026-08-31 23:59:59 | 48.82361 | 2.69272 | 88° | 104km/h | 12391m | 7.9m/s | -58.9°C | 0% | 0hPa | 5.5V | 00:00:00 | 00:00:00 | 00:00:00 | |
| DB0UT-7 | 2026-08-31 23:58:47 | 48.82291 | 2.66537 | 91° | 113km/h | 12055m | 3.9m/s | -59.7°C | 0% | 0hPa | 5.5V | 00:00:00 | 00:00:00 | 00:00:00 | |
| DB0UT-7 | 2026-08-31 23:58:17 | 48.82288 | 2.65230 | 88° | 111km/h | 11922m | 4.6m/s | -59.4°C | 0% | 0hPa | 5.5V | 00:00:00 | 00:00:00 | 00:00:00 | |
| DB0UT-7 | 2026-08-31 23:57:04 | 48.82222 | 2.62087 | 88° | 108km/h | 11569m | 4.4m/s | -56.8°C | 0% | 0hPa | 5.5V | 00:00:00 | 00:00:00 | 00:00:00 | |
| DB0UT-7 | 2026-08-31 23:56:34 | 48.82173 | 2.60846 | 90° | 100km/h | 11418m | 4.3m/s | -55.6°C | 0% | 0hPa | 5.5V | 00:00:00 | 00:00:00 | 00:00:00 | |
| DB0UT-7 | 2026-08-31 23:55:22 | 48.81988 | 2.58151 | 87° | 95km/h | 11098m | 5.6m/s | -53.1°C | 0% | 0hPa | 5.5V | 00:00:00 | 00:00:00 | 00:00:00 | |
| DB0UT-7 | 2026-08-31 23:54:52 | 48.81838 | 2.57076 | 78° | 97km/h | 10933m | 3.6m/s | -51.8°C | 0% | 0hPa | 5.5V | 00:00:00 | 00:00:00 | 00:00:00 | |
| DB0UT-7 | 2026-08-31 23:53:40 | 48.81441 | 2.54488 | 76° | 95km/h | 10625m | 4.7m/s | -49.1°C | 0% | 0hPa | 5.5V | 00:00:00 | 00:00:00 | 00:00:00 | |
| DB0UT-7 | 2026-08-31 23:53:10 | 48.81275 | 2.53431 | 77° | 95km/h | 10491m | 4.6m/s | -47.9°C | 0% | 0hPa | 5.5V | 00:00:00 | 00:00:00 | 00:00:00 | |
| DB0UT-7 | 2026-08-31 23:51:57 | 48.80830 | 2.50853 | 70° | 91km/h | 10167m | 3.7m/s | -45.9°C | 0% | 0hPa | 5.5V | 00:00:00 | 00:00:00 | 00:00:00 | |
| DB0UT-7 | 2026-08-31 23:51:27 | 48.80621 | 2.49866 | 67° | 88km/h | 10040m | 4.7m/s | -44.9°C | 0% | 0hPa | 5.5V | 00:00:00 | 00:00:00 | 00:00:00 | |
| DB0UT-7 | 2026-08-31 23:50:15 | 48.80082 | 2.47544 | 70° | 89km/h | 9702m | 3.7m/s | -42.0°C | 0% | 0hPa | 5.5V | 00:00:00 | 00:00:00 | 00:00:00 | |
| DB0UT-7 | 2026-08-31 23:49:45 | 48.79856 | 2.46564 | 72° | 86km/h | 9557m | 5.5m/s | -40.7°C | 0% | 0hPa | 5.5V | 00:00:00 | 00:00:00 | 00:00:00 | |
| DB0UT-7 | 2026-08-31 23:48:31 | 48.79474 | 2.44204 | 85° | 89km/h | 9240m | 4.4m/s | -38.1°C | 0% | 0hPa | 5.5V | 00:00:00 | 00:00:00 | 00:00:00 | |
| DB0UT-7 | 2026-08-31 23:48:01 | 48.79326 | 2.43198 | 71° | 95km/h | 9115m | 3.3m/s | -37.0°C | 0% | 0hPa | 5.5V | 00:00:00 | 00:00:00 | 00:00:00 | |
| DB0UT-7 | 2026-08-31 23:46:49 | 48.79003 | 2.40588 | 73° | 99km/h | 8798m | 3.5m/s | -35.1°C | 0% | 0hPa | 5.5V | 00:00:00 | 00:00:00 | 00:00:00 | |
| DB0UT-7 | 2026-08-31 23:46:19 | 48.78846 | 2.39505 | 83° | 97km/h | 8662m | 4.7m/s | -34.0°C | 0% | 0hPa | 5.5V | 00:00:00 | 00:00:00 | 00:00:00 | |
| DB0UT-7 | 2026-08-31 23:45:06 | 48.78556 | 2.36814 | 81° | 97km/h | 8351m | 3.8m/s | -31.8°C | 0% | 0hPa | 5.6V | 00:00:00 | 00:00:00 | 00:00:00 | |
| DB0UT-7 | 2026-08-31 23:44:36 | 48.78405 | 2.35733 | 79° | 91km/h | 8223m | 4.2m/s | -30.7°C | 0% | 0hPa | 5.6V | 00:00:00 | 00:00:00 | 00:00:00 | |
| DB0UT-7 | 2026-08-31 23:43:55 | 48.78197 | 2.34294 | 75° | 95km/h | 8046m | 4.0m/s | -29.2°C | 0% | 0hPa | 5.6V | 00:00:00 | 00:00:00 | 00:00:00 | |
| DB0UT-7 | 2026-08-31 23:43:24 | 48.78054 | 2.33189 | 78° | 97km/h | 7913m | 3.8m/s | -28.1°C | 0% | 0hPa | 5.6V | 00:00:00 | 00:00:00 | 00:00:00 | |
| DB0UT-7 | 2026-08-31 23:42:54 | 48.77930 | 2.32099 | 78° | 89km/h | 7785m | 4.6m/s | -27.1°C | 0% | 0hPa | 5.6V | 00:00:00 | 00:00:00 | 00:00:00 | |
| DB0UT-7 | 2026-08-31 23:41:41 | 48.77685 | 2.29548 | 84° | 86km/h | 7474m | 3.5m/s | -24.7°C | 0% | 0hPa | 5.6V | 00:00:00 | 00:00:00 | 00:00:00 | |
| DB0UT-7 | 2026-08-31 23:41:11 | 48.77603 | 2.28562 | 80° | 78km/h | 7331m | 4.0m/s | -23.6°C | 0% | 0hPa | 5.6V | 00:00:00 | 00:00:00 | 00:00:00 | |
| DB0UT-7 | 2026-08-31 23:39:59 | 48.77503 | 2.26281 | 97° | 73km/h | 7005m | 3.9m/s | -21.0°C | 0% | 0hPa | 5.6V | 00:00:00 | 00:00:00 | 00:00:00 | |
| DB0UT-7 | 2026-08-31 23:39:29 | 48.77501 | 2.25448 | 97° | 64km/h | 6874m | 6.1m/s | -20.0°C | 0% | 0hPa | 5.6V | 00:00:00 | 00:00:00 | 00:00:00 |